<?xml version="1.0" encoding="UTF-8" standalone="no" ?>
<gpx xmlns="http://www.topografix.com/GPX/1/1" xmlns:xsi="http://www.w3.org/2001/XMLSchema-instance" xsi:schemaLocation="http://www.topografix.com/GPX/1/1 http://www.topografix.com/GPX/1/1/gpx.xsd" version="1.1" creator="VisuGPX - https://www.visugpx.com">
  <metadata>
    <name>plouharnel-quelvezin-etel-erdeven</name>
  </metadata>
  <trk>
    <name><![CDATA[plouharnel-quelvezin-etel-erdeven_1]]></name>
    <trkseg>
      <trkpt lat="47.63329" lon="-3.09508">
        <ele>18.9</ele>
        <time>2021-06-18T09:03:10+02:00</time>
      </trkpt>
      <trkpt lat="47.63354" lon="-3.09505">
        <ele>21</ele>
        <time>2021-06-18T09:03:15+02:00</time>
      </trkpt>
      <trkpt lat="47.63382" lon="-3.09512">
        <ele>20</ele>
        <time>2021-06-18T09:03:20+02:00</time>
      </trkpt>
      <trkpt lat="47.63404" lon="-3.09512">
        <ele>20</ele>
        <time>2021-06-18T09:03:24+02:00</time>
      </trkpt>
      <trkpt lat="47.63428" lon="-3.09508">
        <ele>20</ele>
        <time>2021-06-18T09:03:28+02:00</time>
      </trkpt>
      <trkpt lat="47.63451" lon="-3.09509">
        <ele>19</ele>
        <time>2021-06-18T09:03:32+02:00</time>
      </trkpt>
      <trkpt lat="47.63475" lon="-3.09524">
        <ele>19</ele>
        <time>2021-06-18T09:03:37+02:00</time>
      </trkpt>
      <trkpt lat="47.63497" lon="-3.09541">
        <ele>19</ele>
        <time>2021-06-18T09:05:00+02:00</time>
      </trkpt>
      <trkpt lat="47.63522" lon="-3.09546">
        <ele>19</ele>
        <time>2021-06-18T09:05:07+02:00</time>
      </trkpt>
      <trkpt lat="47.63547" lon="-3.09543">
        <ele>19</ele>
        <time>2021-06-18T09:05:13+02:00</time>
      </trkpt>
      <trkpt lat="47.63573" lon="-3.09542">
        <ele>20</ele>
        <time>2021-06-18T09:05:19+02:00</time>
      </trkpt>
      <trkpt lat="47.63598" lon="-3.09542">
        <ele>20</ele>
        <time>2021-06-18T09:05:24+02:00</time>
      </trkpt>
      <trkpt lat="47.63624" lon="-3.09544">
        <ele>20</ele>
        <time>2021-06-18T09:05:29+02:00</time>
      </trkpt>
      <trkpt lat="47.63649" lon="-3.09549">
        <ele>21</ele>
        <time>2021-06-18T09:05:34+02:00</time>
      </trkpt>
      <trkpt lat="47.63674" lon="-3.09561">
        <ele>21</ele>
        <time>2021-06-18T09:05:39+02:00</time>
      </trkpt>
      <trkpt lat="47.63697" lon="-3.09571">
        <ele>21</ele>
        <time>2021-06-18T09:05:44+02:00</time>
      </trkpt>
      <trkpt lat="47.63721" lon="-3.0958">
        <ele>21</ele>
        <time>2021-06-18T09:05:49+02:00</time>
      </trkpt>
      <trkpt lat="47.63745" lon="-3.09587">
        <ele>21</ele>
        <time>2021-06-18T09:05:54+02:00</time>
      </trkpt>
      <trkpt lat="47.63771" lon="-3.09603">
        <ele>20</ele>
        <time>2021-06-18T09:05:59+02:00</time>
      </trkpt>
      <trkpt lat="47.63793" lon="-3.09617">
        <ele>19</ele>
        <time>2021-06-18T09:06:03+02:00</time>
      </trkpt>
      <trkpt lat="47.63819" lon="-3.0962">
        <ele>19</ele>
        <time>2021-06-18T09:06:07+02:00</time>
      </trkpt>
      <trkpt lat="47.63843" lon="-3.09624">
        <ele>19</ele>
        <time>2021-06-18T09:06:11+02:00</time>
      </trkpt>
      <trkpt lat="47.63865" lon="-3.09627">
        <ele>19</ele>
        <time>2021-06-18T09:06:15+02:00</time>
      </trkpt>
      <trkpt lat="47.63888" lon="-3.09629">
        <ele>19</ele>
        <time>2021-06-18T09:06:19+02:00</time>
      </trkpt>
      <trkpt lat="47.63915" lon="-3.09623">
        <ele>19</ele>
        <time>2021-06-18T09:06:24+02:00</time>
      </trkpt>
      <trkpt lat="47.6394" lon="-3.09614">
        <ele>20</ele>
        <time>2021-06-18T09:06:29+02:00</time>
      </trkpt>
      <trkpt lat="47.63964" lon="-3.09605">
        <ele>20</ele>
        <time>2021-06-18T09:06:34+02:00</time>
      </trkpt>
      <trkpt lat="47.63988" lon="-3.09596">
        <ele>20</ele>
        <time>2021-06-18T09:06:39+02:00</time>
      </trkpt>
      <trkpt lat="47.64013" lon="-3.09585">
        <ele>20</ele>
        <time>2021-06-18T09:06:44+02:00</time>
      </trkpt>
      <trkpt lat="47.64038" lon="-3.09591">
        <ele>21</ele>
        <time>2021-06-18T09:06:50+02:00</time>
      </trkpt>
      <trkpt lat="47.64063" lon="-3.09587">
        <ele>20</ele>
        <time>2021-06-18T09:06:56+02:00</time>
      </trkpt>
      <trkpt lat="47.6409" lon="-3.09582">
        <ele>20</ele>
        <time>2021-06-18T09:07:03+02:00</time>
      </trkpt>
      <trkpt lat="47.64116" lon="-3.09577">
        <ele>20</ele>
        <time>2021-06-18T09:07:07+02:00</time>
      </trkpt>
      <trkpt lat="47.64143" lon="-3.09575">
        <ele>20</ele>
        <time>2021-06-18T09:07:12+02:00</time>
      </trkpt>
      <trkpt lat="47.64169" lon="-3.09575">
        <ele>20</ele>
        <time>2021-06-18T09:07:17+02:00</time>
      </trkpt>
      <trkpt lat="47.64195" lon="-3.09571">
        <ele>19</ele>
        <time>2021-06-18T09:07:22+02:00</time>
      </trkpt>
      <trkpt lat="47.64222" lon="-3.09568">
        <ele>20</ele>
        <time>2021-06-18T09:07:27+02:00</time>
      </trkpt>
      <trkpt lat="47.64248" lon="-3.09562">
        <ele>20</ele>
        <time>2021-06-18T09:07:32+02:00</time>
      </trkpt>
      <trkpt lat="47.64273" lon="-3.09559">
        <ele>20</ele>
        <time>2021-06-18T09:07:37+02:00</time>
      </trkpt>
      <trkpt lat="47.64299" lon="-3.09556">
        <ele>21</ele>
        <time>2021-06-18T09:07:43+02:00</time>
      </trkpt>
      <trkpt lat="47.64304" lon="-3.09589">
        <ele>20</ele>
        <time>2021-06-18T09:08:02+02:00</time>
      </trkpt>
      <trkpt lat="47.64298" lon="-3.09622">
        <ele>20</ele>
        <time>2021-06-18T09:08:07+02:00</time>
      </trkpt>
      <trkpt lat="47.64292" lon="-3.09661">
        <ele>20</ele>
        <time>2021-06-18T09:08:12+02:00</time>
      </trkpt>
      <trkpt lat="47.64287" lon="-3.09693">
        <ele>20</ele>
        <time>2021-06-18T09:08:16+02:00</time>
      </trkpt>
      <trkpt lat="47.64281" lon="-3.09728">
        <ele>19</ele>
        <time>2021-06-18T09:08:20+02:00</time>
      </trkpt>
      <trkpt lat="47.64276" lon="-3.09761">
        <ele>20</ele>
        <time>2021-06-18T09:08:24+02:00</time>
      </trkpt>
      <trkpt lat="47.64269" lon="-3.09798">
        <ele>20</ele>
        <time>2021-06-18T09:08:29+02:00</time>
      </trkpt>
      <trkpt lat="47.64265" lon="-3.09835">
        <ele>20</ele>
        <time>2021-06-18T09:08:34+02:00</time>
      </trkpt>
      <trkpt lat="47.64262" lon="-3.09871">
        <ele>20</ele>
        <time>2021-06-18T09:08:39+02:00</time>
      </trkpt>
      <trkpt lat="47.64262" lon="-3.09907">
        <ele>21</ele>
        <time>2021-06-18T09:08:44+02:00</time>
      </trkpt>
      <trkpt lat="47.64259" lon="-3.09943">
        <ele>21</ele>
        <time>2021-06-18T09:08:49+02:00</time>
      </trkpt>
      <trkpt lat="47.64262" lon="-3.09982">
        <ele>20</ele>
        <time>2021-06-18T09:08:54+02:00</time>
      </trkpt>
      <trkpt lat="47.64263" lon="-3.10015">
        <ele>20</ele>
        <time>2021-06-18T09:08:59+02:00</time>
      </trkpt>
      <trkpt lat="47.64264" lon="-3.1005">
        <ele>20</ele>
        <time>2021-06-18T09:09:05+02:00</time>
      </trkpt>
      <trkpt lat="47.64265" lon="-3.10088">
        <ele>19</ele>
        <time>2021-06-18T09:09:12+02:00</time>
      </trkpt>
      <trkpt lat="47.64265" lon="-3.10125">
        <ele>21</ele>
        <time>2021-06-18T09:09:19+02:00</time>
      </trkpt>
      <trkpt lat="47.64266" lon="-3.10159">
        <ele>21</ele>
        <time>2021-06-18T09:09:25+02:00</time>
      </trkpt>
      <trkpt lat="47.64267" lon="-3.10193">
        <ele>22</ele>
        <time>2021-06-18T09:09:30+02:00</time>
      </trkpt>
      <trkpt lat="47.64269" lon="-3.10231">
        <ele>20</ele>
        <time>2021-06-18T09:09:36+02:00</time>
      </trkpt>
      <trkpt lat="47.64267" lon="-3.1027">
        <ele>21</ele>
        <time>2021-06-18T09:09:42+02:00</time>
      </trkpt>
      <trkpt lat="47.6427" lon="-3.10308">
        <ele>21</ele>
        <time>2021-06-18T09:09:48+02:00</time>
      </trkpt>
      <trkpt lat="47.64271" lon="-3.10344">
        <ele>21</ele>
        <time>2021-06-18T09:09:53+02:00</time>
      </trkpt>
      <trkpt lat="47.64272" lon="-3.10381">
        <ele>21</ele>
        <time>2021-06-18T09:09:59+02:00</time>
      </trkpt>
      <trkpt lat="47.64273" lon="-3.10416">
        <ele>21</ele>
        <time>2021-06-18T09:10:05+02:00</time>
      </trkpt>
      <trkpt lat="47.64275" lon="-3.10453">
        <ele>21</ele>
        <time>2021-06-18T09:10:12+02:00</time>
      </trkpt>
      <trkpt lat="47.64276" lon="-3.10487">
        <ele>21</ele>
        <time>2021-06-18T09:10:18+02:00</time>
      </trkpt>
      <trkpt lat="47.64276" lon="-3.10523">
        <ele>21</ele>
        <time>2021-06-18T09:10:25+02:00</time>
      </trkpt>
      <trkpt lat="47.64277" lon="-3.10559">
        <ele>21</ele>
        <time>2021-06-18T09:10:32+02:00</time>
      </trkpt>
      <trkpt lat="47.64278" lon="-3.10594">
        <ele>21</ele>
        <time>2021-06-18T09:10:39+02:00</time>
      </trkpt>
      <trkpt lat="47.64279" lon="-3.10631">
        <ele>21</ele>
        <time>2021-06-18T09:10:47+02:00</time>
      </trkpt>
      <trkpt lat="47.6428" lon="-3.10668">
        <ele>21</ele>
        <time>2021-06-18T09:10:53+02:00</time>
      </trkpt>
      <trkpt lat="47.6428" lon="-3.10704">
        <ele>21</ele>
        <time>2021-06-18T09:10:58+02:00</time>
      </trkpt>
      <trkpt lat="47.64283" lon="-3.10742">
        <ele>20</ele>
        <time>2021-06-18T09:11:03+02:00</time>
      </trkpt>
      <trkpt lat="47.64282" lon="-3.10776">
        <ele>20</ele>
        <time>2021-06-18T09:11:07+02:00</time>
      </trkpt>
      <trkpt lat="47.64283" lon="-3.10817">
        <ele>22</ele>
        <time>2021-06-18T09:11:12+02:00</time>
      </trkpt>
      <trkpt lat="47.64283" lon="-3.10851">
        <ele>22</ele>
        <time>2021-06-18T09:11:16+02:00</time>
      </trkpt>
      <trkpt lat="47.64284" lon="-3.10885">
        <ele>21</ele>
        <time>2021-06-18T09:11:20+02:00</time>
      </trkpt>
      <trkpt lat="47.64286" lon="-3.10919">
        <ele>21</ele>
        <time>2021-06-18T09:11:24+02:00</time>
      </trkpt>
      <trkpt lat="47.64288" lon="-3.10952">
        <ele>21</ele>
        <time>2021-06-18T09:11:28+02:00</time>
      </trkpt>
      <trkpt lat="47.6429" lon="-3.10993">
        <ele>21</ele>
        <time>2021-06-18T09:11:33+02:00</time>
      </trkpt>
      <trkpt lat="47.64304" lon="-3.11025">
        <ele>21</ele>
        <time>2021-06-18T09:11:39+02:00</time>
      </trkpt>
      <trkpt lat="47.64294" lon="-3.11058">
        <ele>21</ele>
        <time>2021-06-18T09:11:47+02:00</time>
      </trkpt>
      <trkpt lat="47.6429" lon="-3.11097">
        <ele>22</ele>
        <time>2021-06-18T09:11:53+02:00</time>
      </trkpt>
      <trkpt lat="47.6429" lon="-3.11134">
        <ele>22</ele>
        <time>2021-06-18T09:11:58+02:00</time>
      </trkpt>
      <trkpt lat="47.6429" lon="-3.11171">
        <ele>21</ele>
        <time>2021-06-18T09:12:03+02:00</time>
      </trkpt>
      <trkpt lat="47.6429" lon="-3.1121">
        <ele>21</ele>
        <time>2021-06-18T09:12:08+02:00</time>
      </trkpt>
      <trkpt lat="47.6429" lon="-3.11249">
        <ele>22</ele>
        <time>2021-06-18T09:12:13+02:00</time>
      </trkpt>
      <trkpt lat="47.64292" lon="-3.11289">
        <ele>21</ele>
        <time>2021-06-18T09:12:18+02:00</time>
      </trkpt>
      <trkpt lat="47.64292" lon="-3.11331">
        <ele>21</ele>
        <time>2021-06-18T09:12:23+02:00</time>
      </trkpt>
      <trkpt lat="47.64294" lon="-3.11365">
        <ele>21</ele>
        <time>2021-06-18T09:12:27+02:00</time>
      </trkpt>
      <trkpt lat="47.64294" lon="-3.11399">
        <ele>22</ele>
        <time>2021-06-18T09:12:31+02:00</time>
      </trkpt>
      <trkpt lat="47.64296" lon="-3.1144">
        <ele>22</ele>
        <time>2021-06-18T09:12:36+02:00</time>
      </trkpt>
      <trkpt lat="47.64297" lon="-3.11474">
        <ele>22</ele>
        <time>2021-06-18T09:12:40+02:00</time>
      </trkpt>
      <trkpt lat="47.64298" lon="-3.11515">
        <ele>22</ele>
        <time>2021-06-18T09:12:45+02:00</time>
      </trkpt>
      <trkpt lat="47.64299" lon="-3.11557">
        <ele>22</ele>
        <time>2021-06-18T09:12:50+02:00</time>
      </trkpt>
      <trkpt lat="47.643" lon="-3.1159">
        <ele>22</ele>
        <time>2021-06-18T09:12:54+02:00</time>
      </trkpt>
      <trkpt lat="47.64301" lon="-3.11624">
        <ele>22</ele>
        <time>2021-06-18T09:12:58+02:00</time>
      </trkpt>
      <trkpt lat="47.64302" lon="-3.11659">
        <ele>21</ele>
        <time>2021-06-18T09:13:02+02:00</time>
      </trkpt>
      <trkpt lat="47.64303" lon="-3.11693">
        <ele>21</ele>
        <time>2021-06-18T09:13:06+02:00</time>
      </trkpt>
      <trkpt lat="47.64304" lon="-3.11727">
        <ele>21</ele>
        <time>2021-06-18T09:13:10+02:00</time>
      </trkpt>
      <trkpt lat="47.64305" lon="-3.11761">
        <ele>21</ele>
        <time>2021-06-18T09:13:14+02:00</time>
      </trkpt>
      <trkpt lat="47.64305" lon="-3.11794">
        <ele>21</ele>
        <time>2021-06-18T09:13:18+02:00</time>
      </trkpt>
      <trkpt lat="47.64307" lon="-3.11828">
        <ele>21</ele>
        <time>2021-06-18T09:13:22+02:00</time>
      </trkpt>
      <trkpt lat="47.64307" lon="-3.11863">
        <ele>21</ele>
        <time>2021-06-18T09:13:26+02:00</time>
      </trkpt>
      <trkpt lat="47.64308" lon="-3.11899">
        <ele>21</ele>
        <time>2021-06-18T09:13:30+02:00</time>
      </trkpt>
      <trkpt lat="47.64309" lon="-3.11934">
        <ele>21</ele>
        <time>2021-06-18T09:13:34+02:00</time>
      </trkpt>
      <trkpt lat="47.6431" lon="-3.11968">
        <ele>20</ele>
        <time>2021-06-18T09:13:38+02:00</time>
      </trkpt>
      <trkpt lat="47.64312" lon="-3.12003">
        <ele>20</ele>
        <time>2021-06-18T09:13:42+02:00</time>
      </trkpt>
      <trkpt lat="47.64312" lon="-3.12037">
        <ele>20</ele>
        <time>2021-06-18T09:13:46+02:00</time>
      </trkpt>
      <trkpt lat="47.64313" lon="-3.12071">
        <ele>20</ele>
        <time>2021-06-18T09:13:50+02:00</time>
      </trkpt>
      <trkpt lat="47.64314" lon="-3.12106">
        <ele>21</ele>
        <time>2021-06-18T09:13:54+02:00</time>
      </trkpt>
      <trkpt lat="47.64315" lon="-3.1214">
        <ele>21</ele>
        <time>2021-06-18T09:13:58+02:00</time>
      </trkpt>
      <trkpt lat="47.64315" lon="-3.12174">
        <ele>21</ele>
        <time>2021-06-18T09:14:02+02:00</time>
      </trkpt>
      <trkpt lat="47.64316" lon="-3.12209">
        <ele>20</ele>
        <time>2021-06-18T09:14:06+02:00</time>
      </trkpt>
      <trkpt lat="47.64317" lon="-3.12244">
        <ele>20</ele>
        <time>2021-06-18T09:14:10+02:00</time>
      </trkpt>
      <trkpt lat="47.64319" lon="-3.12284">
        <ele>20</ele>
        <time>2021-06-18T09:14:15+02:00</time>
      </trkpt>
      <trkpt lat="47.6432" lon="-3.12324">
        <ele>21</ele>
        <time>2021-06-18T09:14:20+02:00</time>
      </trkpt>
      <trkpt lat="47.64321" lon="-3.12364">
        <ele>20</ele>
        <time>2021-06-18T09:14:25+02:00</time>
      </trkpt>
      <trkpt lat="47.64322" lon="-3.12406">
        <ele>20</ele>
        <time>2021-06-18T09:14:30+02:00</time>
      </trkpt>
      <trkpt lat="47.64323" lon="-3.12447">
        <ele>20</ele>
        <time>2021-06-18T09:14:35+02:00</time>
      </trkpt>
      <trkpt lat="47.64324" lon="-3.12488">
        <ele>20</ele>
        <time>2021-06-18T09:14:40+02:00</time>
      </trkpt>
      <trkpt lat="47.64325" lon="-3.12529">
        <ele>20</ele>
        <time>2021-06-18T09:14:45+02:00</time>
      </trkpt>
      <trkpt lat="47.64326" lon="-3.1257">
        <ele>21</ele>
        <time>2021-06-18T09:14:50+02:00</time>
      </trkpt>
      <trkpt lat="47.64326" lon="-3.12609">
        <ele>21</ele>
        <time>2021-06-18T09:14:55+02:00</time>
      </trkpt>
      <trkpt lat="47.64326" lon="-3.12649">
        <ele>20</ele>
        <time>2021-06-18T09:15:00+02:00</time>
      </trkpt>
      <trkpt lat="47.64324" lon="-3.1269">
        <ele>19</ele>
        <time>2021-06-18T09:15:05+02:00</time>
      </trkpt>
      <trkpt lat="47.6432" lon="-3.12731">
        <ele>20</ele>
        <time>2021-06-18T09:15:10+02:00</time>
      </trkpt>
      <trkpt lat="47.64322" lon="-3.12767">
        <ele>20</ele>
        <time>2021-06-18T09:15:16+02:00</time>
      </trkpt>
      <trkpt lat="47.64346" lon="-3.12773">
        <ele>20</ele>
        <time>2021-06-18T09:15:22+02:00</time>
      </trkpt>
      <trkpt lat="47.64369" lon="-3.12781">
        <ele>21</ele>
        <time>2021-06-18T09:15:27+02:00</time>
      </trkpt>
      <trkpt lat="47.64393" lon="-3.12786">
        <ele>21</ele>
        <time>2021-06-18T09:15:32+02:00</time>
      </trkpt>
      <trkpt lat="47.64416" lon="-3.12781">
        <ele>20</ele>
        <time>2021-06-18T09:15:37+02:00</time>
      </trkpt>
      <trkpt lat="47.64436" lon="-3.12764">
        <ele>20</ele>
        <time>2021-06-18T09:15:42+02:00</time>
      </trkpt>
      <trkpt lat="47.64457" lon="-3.1275">
        <ele>20</ele>
        <time>2021-06-18T09:15:48+02:00</time>
      </trkpt>
      <trkpt lat="47.64481" lon="-3.12743">
        <ele>20</ele>
        <time>2021-06-18T09:15:53+02:00</time>
      </trkpt>
      <trkpt lat="47.64506" lon="-3.12738">
        <ele>19</ele>
        <time>2021-06-18T09:15:58+02:00</time>
      </trkpt>
      <trkpt lat="47.64532" lon="-3.12726">
        <ele>20</ele>
        <time>2021-06-18T09:16:03+02:00</time>
      </trkpt>
      <trkpt lat="47.64555" lon="-3.12708">
        <ele>20</ele>
        <time>2021-06-18T09:16:08+02:00</time>
      </trkpt>
      <trkpt lat="47.64576" lon="-3.12687">
        <ele>21</ele>
        <time>2021-06-18T09:16:13+02:00</time>
      </trkpt>
      <trkpt lat="47.64601" lon="-3.12667">
        <ele>21</ele>
        <time>2021-06-18T09:16:18+02:00</time>
      </trkpt>
      <trkpt lat="47.64626" lon="-3.12653">
        <ele>23</ele>
        <time>2021-06-18T09:16:23+02:00</time>
      </trkpt>
      <trkpt lat="47.6465" lon="-3.12643">
        <ele>22</ele>
        <time>2021-06-18T09:16:28+02:00</time>
      </trkpt>
      <trkpt lat="47.64676" lon="-3.12637">
        <ele>21</ele>
        <time>2021-06-18T09:16:33+02:00</time>
      </trkpt>
      <trkpt lat="47.64699" lon="-3.12631">
        <ele>22</ele>
        <time>2021-06-18T09:16:38+02:00</time>
      </trkpt>
      <trkpt lat="47.64725" lon="-3.12623">
        <ele>21</ele>
        <time>2021-06-18T09:16:44+02:00</time>
      </trkpt>
      <trkpt lat="47.64744" lon="-3.12646">
        <ele>21</ele>
        <time>2021-06-18T09:16:51+02:00</time>
      </trkpt>
      <trkpt lat="47.64748" lon="-3.12683">
        <ele>21</ele>
        <time>2021-06-18T09:16:56+02:00</time>
      </trkpt>
      <trkpt lat="47.64751" lon="-3.12723">
        <ele>20</ele>
        <time>2021-06-18T09:17:01+02:00</time>
      </trkpt>
      <trkpt lat="47.64756" lon="-3.12758">
        <ele>19</ele>
        <time>2021-06-18T09:17:05+02:00</time>
      </trkpt>
      <trkpt lat="47.64758" lon="-3.12791">
        <ele>19</ele>
        <time>2021-06-18T09:17:09+02:00</time>
      </trkpt>
      <trkpt lat="47.6476" lon="-3.12825">
        <ele>20</ele>
        <time>2021-06-18T09:17:13+02:00</time>
      </trkpt>
      <trkpt lat="47.6476" lon="-3.12864">
        <ele>19</ele>
        <time>2021-06-18T09:17:18+02:00</time>
      </trkpt>
      <trkpt lat="47.64761" lon="-3.12902">
        <ele>19</ele>
        <time>2021-06-18T09:17:23+02:00</time>
      </trkpt>
      <trkpt lat="47.64761" lon="-3.12936">
        <ele>19</ele>
        <time>2021-06-18T09:17:27+02:00</time>
      </trkpt>
      <trkpt lat="47.64761" lon="-3.12977">
        <ele>19</ele>
        <time>2021-06-18T09:17:32+02:00</time>
      </trkpt>
      <trkpt lat="47.6476" lon="-3.13018">
        <ele>19</ele>
        <time>2021-06-18T09:17:37+02:00</time>
      </trkpt>
      <trkpt lat="47.6476" lon="-3.13057">
        <ele>20</ele>
        <time>2021-06-18T09:17:42+02:00</time>
      </trkpt>
      <trkpt lat="47.64762" lon="-3.13095">
        <ele>19</ele>
        <time>2021-06-18T09:17:47+02:00</time>
      </trkpt>
      <trkpt lat="47.64765" lon="-3.13132">
        <ele>20</ele>
        <time>2021-06-18T09:17:52+02:00</time>
      </trkpt>
      <trkpt lat="47.64768" lon="-3.13171">
        <ele>19</ele>
        <time>2021-06-18T09:17:57+02:00</time>
      </trkpt>
      <trkpt lat="47.64771" lon="-3.13211">
        <ele>19</ele>
        <time>2021-06-18T09:18:02+02:00</time>
      </trkpt>
      <trkpt lat="47.64776" lon="-3.13245">
        <ele>19</ele>
        <time>2021-06-18T09:18:07+02:00</time>
      </trkpt>
      <trkpt lat="47.64774" lon="-3.13282">
        <ele>19</ele>
        <time>2021-06-18T09:18:12+02:00</time>
      </trkpt>
      <trkpt lat="47.64769" lon="-3.13322">
        <ele>19</ele>
        <time>2021-06-18T09:18:18+02:00</time>
      </trkpt>
      <trkpt lat="47.64762" lon="-3.13354">
        <ele>21</ele>
        <time>2021-06-18T09:18:24+02:00</time>
      </trkpt>
      <trkpt lat="47.64749" lon="-3.13383">
        <ele>20</ele>
        <time>2021-06-18T09:18:29+02:00</time>
      </trkpt>
      <trkpt lat="47.64739" lon="-3.13412">
        <ele>20</ele>
        <time>2021-06-18T09:18:33+02:00</time>
      </trkpt>
      <trkpt lat="47.64729" lon="-3.13448">
        <ele>19</ele>
        <time>2021-06-18T09:18:38+02:00</time>
      </trkpt>
      <trkpt lat="47.64719" lon="-3.13483">
        <ele>20</ele>
        <time>2021-06-18T09:18:43+02:00</time>
      </trkpt>
      <trkpt lat="47.64711" lon="-3.13517">
        <ele>20</ele>
        <time>2021-06-18T09:18:48+02:00</time>
      </trkpt>
      <trkpt lat="47.64704" lon="-3.13554">
        <ele>20</ele>
        <time>2021-06-18T09:18:54+02:00</time>
      </trkpt>
      <trkpt lat="47.64703" lon="-3.13591">
        <ele>20</ele>
        <time>2021-06-18T09:19:00+02:00</time>
      </trkpt>
      <trkpt lat="47.64696" lon="-3.13627">
        <ele>20</ele>
        <time>2021-06-18T09:19:04+02:00</time>
      </trkpt>
      <trkpt lat="47.64688" lon="-3.13661">
        <ele>19</ele>
        <time>2021-06-18T09:19:08+02:00</time>
      </trkpt>
      <trkpt lat="47.64681" lon="-3.13696">
        <ele>19</ele>
        <time>2021-06-18T09:19:12+02:00</time>
      </trkpt>
      <trkpt lat="47.64676" lon="-3.13736">
        <ele>20</ele>
        <time>2021-06-18T09:19:17+02:00</time>
      </trkpt>
      <trkpt lat="47.64666" lon="-3.13774">
        <ele>22</ele>
        <time>2021-06-18T09:19:22+02:00</time>
      </trkpt>
      <trkpt lat="47.64662" lon="-3.1381">
        <ele>20</ele>
        <time>2021-06-18T09:19:27+02:00</time>
      </trkpt>
      <trkpt lat="47.64659" lon="-3.13846">
        <ele>20</ele>
        <time>2021-06-18T09:19:31+02:00</time>
      </trkpt>
      <trkpt lat="47.64656" lon="-3.13885">
        <ele>20</ele>
        <time>2021-06-18T09:19:36+02:00</time>
      </trkpt>
      <trkpt lat="47.64651" lon="-3.13918">
        <ele>21</ele>
        <time>2021-06-18T09:19:40+02:00</time>
      </trkpt>
      <trkpt lat="47.64645" lon="-3.13953">
        <ele>21</ele>
        <time>2021-06-18T09:19:45+02:00</time>
      </trkpt>
      <trkpt lat="47.6464" lon="-3.1399">
        <ele>21</ele>
        <time>2021-06-18T09:19:50+02:00</time>
      </trkpt>
      <trkpt lat="47.64634" lon="-3.1403">
        <ele>20</ele>
        <time>2021-06-18T09:19:55+02:00</time>
      </trkpt>
      <trkpt lat="47.64627" lon="-3.1407">
        <ele>20</ele>
        <time>2021-06-18T09:20:01+02:00</time>
      </trkpt>
      <trkpt lat="47.6462" lon="-3.14104">
        <ele>20</ele>
        <time>2021-06-18T09:20:06+02:00</time>
      </trkpt>
      <trkpt lat="47.64612" lon="-3.14141">
        <ele>21</ele>
        <time>2021-06-18T09:20:11+02:00</time>
      </trkpt>
      <trkpt lat="47.64612" lon="-3.14177">
        <ele>20</ele>
        <time>2021-06-18T09:20:16+02:00</time>
      </trkpt>
      <trkpt lat="47.64614" lon="-3.14213">
        <ele>22</ele>
        <time>2021-06-18T09:20:21+02:00</time>
      </trkpt>
      <trkpt lat="47.64613" lon="-3.14251">
        <ele>22</ele>
        <time>2021-06-18T09:20:26+02:00</time>
      </trkpt>
      <trkpt lat="47.64609" lon="-3.14291">
        <ele>20</ele>
        <time>2021-06-18T09:20:31+02:00</time>
      </trkpt>
      <trkpt lat="47.64607" lon="-3.14325">
        <ele>21</ele>
        <time>2021-06-18T09:20:35+02:00</time>
      </trkpt>
      <trkpt lat="47.64632" lon="-3.14335">
        <ele>20</ele>
        <time>2021-06-18T09:20:45+02:00</time>
      </trkpt>
      <trkpt lat="47.64657" lon="-3.14332">
        <ele>21</ele>
        <time>2021-06-18T09:20:51+02:00</time>
      </trkpt>
      <trkpt lat="47.64683" lon="-3.14338">
        <ele>21</ele>
        <time>2021-06-18T09:20:56+02:00</time>
      </trkpt>
      <trkpt lat="47.64706" lon="-3.14345">
        <ele>20</ele>
        <time>2021-06-18T09:21:01+02:00</time>
      </trkpt>
      <trkpt lat="47.64732" lon="-3.14349">
        <ele>20</ele>
        <time>2021-06-18T09:21:06+02:00</time>
      </trkpt>
      <trkpt lat="47.64759" lon="-3.1436">
        <ele>20</ele>
        <time>2021-06-18T09:21:11+02:00</time>
      </trkpt>
      <trkpt lat="47.64784" lon="-3.14375">
        <ele>20</ele>
        <time>2021-06-18T09:21:16+02:00</time>
      </trkpt>
      <trkpt lat="47.64808" lon="-3.14389">
        <ele>20</ele>
        <time>2021-06-18T09:21:21+02:00</time>
      </trkpt>
      <trkpt lat="47.64824" lon="-3.14418">
        <ele>20</ele>
        <time>2021-06-18T09:21:27+02:00</time>
      </trkpt>
      <trkpt lat="47.64829" lon="-3.14453">
        <ele>21</ele>
        <time>2021-06-18T09:21:33+02:00</time>
      </trkpt>
      <trkpt lat="47.64823" lon="-3.14488">
        <ele>21</ele>
        <time>2021-06-18T09:21:39+02:00</time>
      </trkpt>
      <trkpt lat="47.64819" lon="-3.14523">
        <ele>20</ele>
        <time>2021-06-18T09:21:44+02:00</time>
      </trkpt>
      <trkpt lat="47.64813" lon="-3.1456">
        <ele>20</ele>
        <time>2021-06-18T09:21:49+02:00</time>
      </trkpt>
      <trkpt lat="47.64791" lon="-3.14569">
        <ele>20</ele>
        <time>2021-06-18T09:21:55+02:00</time>
      </trkpt>
      <trkpt lat="47.64768" lon="-3.14561">
        <ele>19</ele>
        <time>2021-06-18T09:22:00+02:00</time>
      </trkpt>
      <trkpt lat="47.64743" lon="-3.14554">
        <ele>20</ele>
        <time>2021-06-18T09:22:05+02:00</time>
      </trkpt>
      <trkpt lat="47.6472" lon="-3.14551">
        <ele>20</ele>
        <time>2021-06-18T09:22:10+02:00</time>
      </trkpt>
      <trkpt lat="47.64693" lon="-3.14552">
        <ele>21</ele>
        <time>2021-06-18T09:22:16+02:00</time>
      </trkpt>
      <trkpt lat="47.64669" lon="-3.14552">
        <ele>19</ele>
        <time>2021-06-18T09:22:21+02:00</time>
      </trkpt>
      <trkpt lat="47.64646" lon="-3.14551">
        <ele>20</ele>
        <time>2021-06-18T09:22:34+02:00</time>
      </trkpt>
      <trkpt lat="47.64624" lon="-3.14544">
        <ele>21</ele>
        <time>2021-06-18T09:23:57+02:00</time>
      </trkpt>
      <trkpt lat="47.64599" lon="-3.14542">
        <ele>20</ele>
        <time>2021-06-18T09:24:05+02:00</time>
      </trkpt>
      <trkpt lat="47.64574" lon="-3.14537">
        <ele>20</ele>
        <time>2021-06-18T09:24:12+02:00</time>
      </trkpt>
      <trkpt lat="47.64548" lon="-3.1454">
        <ele>20</ele>
        <time>2021-06-18T09:24:19+02:00</time>
      </trkpt>
      <trkpt lat="47.64528" lon="-3.14558">
        <ele>20</ele>
        <time>2021-06-18T09:24:26+02:00</time>
      </trkpt>
      <trkpt lat="47.64527" lon="-3.14594">
        <ele>19</ele>
        <time>2021-06-18T09:24:32+02:00</time>
      </trkpt>
      <trkpt lat="47.64527" lon="-3.14628">
        <ele>21</ele>
        <time>2021-06-18T09:24:37+02:00</time>
      </trkpt>
      <trkpt lat="47.64502" lon="-3.14631">
        <ele>20</ele>
        <time>2021-06-18T09:24:44+02:00</time>
      </trkpt>
      <trkpt lat="47.64479" lon="-3.14637">
        <ele>20</ele>
        <time>2021-06-18T09:24:49+02:00</time>
      </trkpt>
      <trkpt lat="47.64474" lon="-3.14675">
        <ele>20</ele>
        <time>2021-06-18T09:24:54+02:00</time>
      </trkpt>
      <trkpt lat="47.6446" lon="-3.14707">
        <ele>20</ele>
        <time>2021-06-18T09:24:59+02:00</time>
      </trkpt>
      <trkpt lat="47.6445" lon="-3.14738">
        <ele>20</ele>
        <time>2021-06-18T09:25:04+02:00</time>
      </trkpt>
      <trkpt lat="47.64432" lon="-3.14768">
        <ele>21</ele>
        <time>2021-06-18T09:25:10+02:00</time>
      </trkpt>
      <trkpt lat="47.64415" lon="-3.14794">
        <ele>21</ele>
        <time>2021-06-18T09:25:15+02:00</time>
      </trkpt>
      <trkpt lat="47.64395" lon="-3.14819">
        <ele>20</ele>
        <time>2021-06-18T09:25:20+02:00</time>
      </trkpt>
      <trkpt lat="47.64379" lon="-3.14845">
        <ele>22</ele>
        <time>2021-06-18T09:25:25+02:00</time>
      </trkpt>
      <trkpt lat="47.64361" lon="-3.14871">
        <ele>22</ele>
        <time>2021-06-18T09:25:30+02:00</time>
      </trkpt>
      <trkpt lat="47.64344" lon="-3.149">
        <ele>21</ele>
        <time>2021-06-18T09:25:35+02:00</time>
      </trkpt>
      <trkpt lat="47.64327" lon="-3.14929">
        <ele>21</ele>
        <time>2021-06-18T09:25:40+02:00</time>
      </trkpt>
      <trkpt lat="47.64308" lon="-3.14957">
        <ele>20</ele>
        <time>2021-06-18T09:25:45+02:00</time>
      </trkpt>
      <trkpt lat="47.64291" lon="-3.14981">
        <ele>20</ele>
        <time>2021-06-18T09:25:50+02:00</time>
      </trkpt>
      <trkpt lat="47.64271" lon="-3.15006">
        <ele>19</ele>
        <time>2021-06-18T09:25:55+02:00</time>
      </trkpt>
      <trkpt lat="47.64254" lon="-3.15028">
        <ele>19</ele>
        <time>2021-06-18T09:25:59+02:00</time>
      </trkpt>
      <trkpt lat="47.64237" lon="-3.1505">
        <ele>20</ele>
        <time>2021-06-18T09:26:03+02:00</time>
      </trkpt>
      <trkpt lat="47.64219" lon="-3.15079">
        <ele>20</ele>
        <time>2021-06-18T09:26:08+02:00</time>
      </trkpt>
      <trkpt lat="47.64207" lon="-3.1511">
        <ele>19</ele>
        <time>2021-06-18T09:26:14+02:00</time>
      </trkpt>
      <trkpt lat="47.642" lon="-3.15147">
        <ele>20</ele>
        <time>2021-06-18T09:26:20+02:00</time>
      </trkpt>
      <trkpt lat="47.6419" lon="-3.15181">
        <ele>20</ele>
        <time>2021-06-18T09:26:26+02:00</time>
      </trkpt>
      <trkpt lat="47.64179" lon="-3.15213">
        <ele>20</ele>
        <time>2021-06-18T09:26:32+02:00</time>
      </trkpt>
      <trkpt lat="47.64169" lon="-3.15247">
        <ele>20</ele>
        <time>2021-06-18T09:26:38+02:00</time>
      </trkpt>
      <trkpt lat="47.64158" lon="-3.1528">
        <ele>21</ele>
        <time>2021-06-18T09:26:46+02:00</time>
      </trkpt>
      <trkpt lat="47.64155" lon="-3.15319">
        <ele>20</ele>
        <time>2021-06-18T09:26:52+02:00</time>
      </trkpt>
      <trkpt lat="47.64151" lon="-3.15356">
        <ele>20</ele>
        <time>2021-06-18T09:26:58+02:00</time>
      </trkpt>
      <trkpt lat="47.64148" lon="-3.1539">
        <ele>20</ele>
        <time>2021-06-18T09:27:03+02:00</time>
      </trkpt>
      <trkpt lat="47.64146" lon="-3.15425">
        <ele>20</ele>
        <time>2021-06-18T09:27:08+02:00</time>
      </trkpt>
      <trkpt lat="47.64143" lon="-3.1546">
        <ele>20</ele>
        <time>2021-06-18T09:27:13+02:00</time>
      </trkpt>
      <trkpt lat="47.64138" lon="-3.15493">
        <ele>19</ele>
        <time>2021-06-18T09:27:18+02:00</time>
      </trkpt>
      <trkpt lat="47.64133" lon="-3.15526">
        <ele>19</ele>
        <time>2021-06-18T09:27:30+02:00</time>
      </trkpt>
      <trkpt lat="47.64117" lon="-3.15549">
        <ele>18</ele>
        <time>2021-06-18T09:27:38+02:00</time>
      </trkpt>
      <trkpt lat="47.6412" lon="-3.15583">
        <ele>19</ele>
        <time>2021-06-18T09:27:44+02:00</time>
      </trkpt>
      <trkpt lat="47.64116" lon="-3.15618">
        <ele>20</ele>
        <time>2021-06-18T09:27:50+02:00</time>
      </trkpt>
      <trkpt lat="47.64113" lon="-3.15659">
        <ele>18</ele>
        <time>2021-06-18T09:27:56+02:00</time>
      </trkpt>
      <trkpt lat="47.64113" lon="-3.15697">
        <ele>17</ele>
        <time>2021-06-18T09:28:01+02:00</time>
      </trkpt>
      <trkpt lat="47.64112" lon="-3.15732">
        <ele>16</ele>
        <time>2021-06-18T09:28:05+02:00</time>
      </trkpt>
      <trkpt lat="47.64109" lon="-3.15768">
        <ele>17</ele>
        <time>2021-06-18T09:28:09+02:00</time>
      </trkpt>
      <trkpt lat="47.64104" lon="-3.15808">
        <ele>17</ele>
        <time>2021-06-18T09:28:14+02:00</time>
      </trkpt>
      <trkpt lat="47.64097" lon="-3.15846">
        <ele>17</ele>
        <time>2021-06-18T09:28:19+02:00</time>
      </trkpt>
      <trkpt lat="47.64091" lon="-3.15885">
        <ele>16</ele>
        <time>2021-06-18T09:28:24+02:00</time>
      </trkpt>
      <trkpt lat="47.64084" lon="-3.15922">
        <ele>16</ele>
        <time>2021-06-18T09:28:29+02:00</time>
      </trkpt>
      <trkpt lat="47.64078" lon="-3.1596">
        <ele>17</ele>
        <time>2021-06-18T09:28:35+02:00</time>
      </trkpt>
      <trkpt lat="47.64076" lon="-3.15996">
        <ele>17</ele>
        <time>2021-06-18T09:28:41+02:00</time>
      </trkpt>
      <trkpt lat="47.64071" lon="-3.1603">
        <ele>16</ele>
        <time>2021-06-18T09:28:46+02:00</time>
      </trkpt>
      <trkpt lat="47.64067" lon="-3.16065">
        <ele>16</ele>
        <time>2021-06-18T09:28:51+02:00</time>
      </trkpt>
      <trkpt lat="47.6406" lon="-3.16101">
        <ele>16</ele>
        <time>2021-06-18T09:28:57+02:00</time>
      </trkpt>
      <trkpt lat="47.64055" lon="-3.16137">
        <ele>17</ele>
        <time>2021-06-18T09:29:02+02:00</time>
      </trkpt>
      <trkpt lat="47.6405" lon="-3.16175">
        <ele>16</ele>
        <time>2021-06-18T09:29:07+02:00</time>
      </trkpt>
      <trkpt lat="47.64044" lon="-3.16216">
        <ele>16</ele>
        <time>2021-06-18T09:29:12+02:00</time>
      </trkpt>
      <trkpt lat="47.64039" lon="-3.1625">
        <ele>15</ele>
        <time>2021-06-18T09:29:16+02:00</time>
      </trkpt>
      <trkpt lat="47.64034" lon="-3.16283">
        <ele>16</ele>
        <time>2021-06-18T09:29:20+02:00</time>
      </trkpt>
      <trkpt lat="47.6403" lon="-3.16316">
        <ele>16</ele>
        <time>2021-06-18T09:29:24+02:00</time>
      </trkpt>
      <trkpt lat="47.64027" lon="-3.16358">
        <ele>16</ele>
        <time>2021-06-18T09:29:29+02:00</time>
      </trkpt>
      <trkpt lat="47.64022" lon="-3.16397">
        <ele>16</ele>
        <time>2021-06-18T09:29:34+02:00</time>
      </trkpt>
      <trkpt lat="47.64019" lon="-3.16437">
        <ele>16</ele>
        <time>2021-06-18T09:29:39+02:00</time>
      </trkpt>
      <trkpt lat="47.64015" lon="-3.16476">
        <ele>16</ele>
        <time>2021-06-18T09:29:44+02:00</time>
      </trkpt>
      <trkpt lat="47.64011" lon="-3.16516">
        <ele>16</ele>
        <time>2021-06-18T09:29:49+02:00</time>
      </trkpt>
      <trkpt lat="47.64007" lon="-3.16554">
        <ele>16</ele>
        <time>2021-06-18T09:29:54+02:00</time>
      </trkpt>
      <trkpt lat="47.6403" lon="-3.16567">
        <ele>15</ele>
        <time>2021-06-18T09:30:01+02:00</time>
      </trkpt>
      <trkpt lat="47.64055" lon="-3.1656">
        <ele>15</ele>
        <time>2021-06-18T09:30:06+02:00</time>
      </trkpt>
      <trkpt lat="47.64081" lon="-3.16554">
        <ele>15</ele>
        <time>2021-06-18T09:30:11+02:00</time>
      </trkpt>
      <trkpt lat="47.64107" lon="-3.16554">
        <ele>15</ele>
        <time>2021-06-18T09:30:16+02:00</time>
      </trkpt>
      <trkpt lat="47.64131" lon="-3.16565">
        <ele>16</ele>
        <time>2021-06-18T09:30:21+02:00</time>
      </trkpt>
      <trkpt lat="47.64156" lon="-3.16573">
        <ele>15</ele>
        <time>2021-06-18T09:30:26+02:00</time>
      </trkpt>
      <trkpt lat="47.6418" lon="-3.16579">
        <ele>16</ele>
        <time>2021-06-18T09:30:31+02:00</time>
      </trkpt>
      <trkpt lat="47.64204" lon="-3.16586">
        <ele>16</ele>
        <time>2021-06-18T09:30:35+02:00</time>
      </trkpt>
      <trkpt lat="47.64228" lon="-3.16595">
        <ele>17</ele>
        <time>2021-06-18T09:30:40+02:00</time>
      </trkpt>
      <trkpt lat="47.64252" lon="-3.166">
        <ele>15</ele>
        <time>2021-06-18T09:30:44+02:00</time>
      </trkpt>
      <trkpt lat="47.64272" lon="-3.16613">
        <ele>15</ele>
        <time>2021-06-18T09:30:48+02:00</time>
      </trkpt>
      <trkpt lat="47.64298" lon="-3.16623">
        <ele>15</ele>
        <time>2021-06-18T09:30:53+02:00</time>
      </trkpt>
      <trkpt lat="47.64323" lon="-3.16628">
        <ele>15</ele>
        <time>2021-06-18T09:30:58+02:00</time>
      </trkpt>
      <trkpt lat="47.64347" lon="-3.16629">
        <ele>15</ele>
        <time>2021-06-18T09:31:02+02:00</time>
      </trkpt>
      <trkpt lat="47.64371" lon="-3.1663">
        <ele>15</ele>
        <time>2021-06-18T09:31:06+02:00</time>
      </trkpt>
      <trkpt lat="47.64393" lon="-3.16628">
        <ele>16</ele>
        <time>2021-06-18T09:31:10+02:00</time>
      </trkpt>
      <trkpt lat="47.64418" lon="-3.16643">
        <ele>15</ele>
        <time>2021-06-18T09:31:15+02:00</time>
      </trkpt>
      <trkpt lat="47.64419" lon="-3.16684">
        <ele>15</ele>
        <time>2021-06-18T09:31:20+02:00</time>
      </trkpt>
      <trkpt lat="47.64417" lon="-3.16718">
        <ele>16</ele>
        <time>2021-06-18T09:31:24+02:00</time>
      </trkpt>
      <trkpt lat="47.6442" lon="-3.16753">
        <ele>15</ele>
        <time>2021-06-18T09:31:29+02:00</time>
      </trkpt>
      <trkpt lat="47.64413" lon="-3.1679">
        <ele>19</ele>
        <time>2021-06-18T09:31:33+02:00</time>
      </trkpt>
      <trkpt lat="47.64413" lon="-3.16827">
        <ele>17</ele>
        <time>2021-06-18T09:31:37+02:00</time>
      </trkpt>
      <trkpt lat="47.64414" lon="-3.16861">
        <ele>16</ele>
        <time>2021-06-18T09:31:41+02:00</time>
      </trkpt>
      <trkpt lat="47.64415" lon="-3.16896">
        <ele>15</ele>
        <time>2021-06-18T09:31:45+02:00</time>
      </trkpt>
      <trkpt lat="47.6442" lon="-3.16937">
        <ele>15</ele>
        <time>2021-06-18T09:31:50+02:00</time>
      </trkpt>
      <trkpt lat="47.64421" lon="-3.1697">
        <ele>15</ele>
        <time>2021-06-18T09:31:54+02:00</time>
      </trkpt>
      <trkpt lat="47.64421" lon="-3.17005">
        <ele>14</ele>
        <time>2021-06-18T09:31:58+02:00</time>
      </trkpt>
      <trkpt lat="47.64421" lon="-3.17038">
        <ele>15</ele>
        <time>2021-06-18T09:32:02+02:00</time>
      </trkpt>
      <trkpt lat="47.6442" lon="-3.17075">
        <ele>15</ele>
        <time>2021-06-18T09:32:06+02:00</time>
      </trkpt>
      <trkpt lat="47.6442" lon="-3.17111">
        <ele>15</ele>
        <time>2021-06-18T09:32:10+02:00</time>
      </trkpt>
      <trkpt lat="47.64415" lon="-3.17151">
        <ele>14</ele>
        <time>2021-06-18T09:32:15+02:00</time>
      </trkpt>
      <trkpt lat="47.64413" lon="-3.17193">
        <ele>15</ele>
        <time>2021-06-18T09:32:20+02:00</time>
      </trkpt>
      <trkpt lat="47.64411" lon="-3.17232">
        <ele>15</ele>
        <time>2021-06-18T09:32:25+02:00</time>
      </trkpt>
      <trkpt lat="47.64415" lon="-3.17276">
        <ele>14</ele>
        <time>2021-06-18T09:32:31+02:00</time>
      </trkpt>
      <trkpt lat="47.64418" lon="-3.17315">
        <ele>15</ele>
        <time>2021-06-18T09:32:36+02:00</time>
      </trkpt>
      <trkpt lat="47.64421" lon="-3.17355">
        <ele>15</ele>
        <time>2021-06-18T09:32:41+02:00</time>
      </trkpt>
      <trkpt lat="47.64427" lon="-3.17394">
        <ele>16</ele>
        <time>2021-06-18T09:32:46+02:00</time>
      </trkpt>
      <trkpt lat="47.64433" lon="-3.17432">
        <ele>16</ele>
        <time>2021-06-18T09:32:51+02:00</time>
      </trkpt>
      <trkpt lat="47.64438" lon="-3.17471">
        <ele>17</ele>
        <time>2021-06-18T09:32:56+02:00</time>
      </trkpt>
      <trkpt lat="47.64442" lon="-3.17509">
        <ele>17</ele>
        <time>2021-06-18T09:33:01+02:00</time>
      </trkpt>
      <trkpt lat="47.64444" lon="-3.17548">
        <ele>17</ele>
        <time>2021-06-18T09:33:06+02:00</time>
      </trkpt>
      <trkpt lat="47.64454" lon="-3.17581">
        <ele>16</ele>
        <time>2021-06-18T09:33:12+02:00</time>
      </trkpt>
      <trkpt lat="47.64455" lon="-3.17619">
        <ele>16</ele>
        <time>2021-06-18T09:33:18+02:00</time>
      </trkpt>
      <trkpt lat="47.64437" lon="-3.17645">
        <ele>15</ele>
        <time>2021-06-18T09:33:24+02:00</time>
      </trkpt>
      <trkpt lat="47.64412" lon="-3.17644">
        <ele>16</ele>
        <time>2021-06-18T09:33:29+02:00</time>
      </trkpt>
      <trkpt lat="47.64386" lon="-3.17646">
        <ele>16</ele>
        <time>2021-06-18T09:33:34+02:00</time>
      </trkpt>
      <trkpt lat="47.64358" lon="-3.17648">
        <ele>16</ele>
        <time>2021-06-18T09:33:39+02:00</time>
      </trkpt>
      <trkpt lat="47.64363" lon="-3.17684">
        <ele>15</ele>
        <time>2021-06-18T09:33:45+02:00</time>
      </trkpt>
      <trkpt lat="47.64377" lon="-3.17717">
        <ele>15</ele>
        <time>2021-06-18T09:33:50+02:00</time>
      </trkpt>
      <trkpt lat="47.64391" lon="-3.17751">
        <ele>15</ele>
        <time>2021-06-18T09:33:55+02:00</time>
      </trkpt>
      <trkpt lat="47.64406" lon="-3.17785">
        <ele>15</ele>
        <time>2021-06-18T09:34:00+02:00</time>
      </trkpt>
      <trkpt lat="47.64419" lon="-3.17818">
        <ele>17</ele>
        <time>2021-06-18T09:34:05+02:00</time>
      </trkpt>
      <trkpt lat="47.64432" lon="-3.17848">
        <ele>16</ele>
        <time>2021-06-18T09:34:10+02:00</time>
      </trkpt>
      <trkpt lat="47.64445" lon="-3.17876">
        <ele>18</ele>
        <time>2021-06-18T09:34:15+02:00</time>
      </trkpt>
      <trkpt lat="47.64461" lon="-3.17908">
        <ele>18</ele>
        <time>2021-06-18T09:34:21+02:00</time>
      </trkpt>
      <trkpt lat="47.64478" lon="-3.17931">
        <ele>18</ele>
        <time>2021-06-18T09:34:26+02:00</time>
      </trkpt>
      <trkpt lat="47.64496" lon="-3.17955">
        <ele>17</ele>
        <time>2021-06-18T09:34:31+02:00</time>
      </trkpt>
      <trkpt lat="47.64513" lon="-3.17981">
        <ele>18</ele>
        <time>2021-06-18T09:34:36+02:00</time>
      </trkpt>
      <trkpt lat="47.64529" lon="-3.18006">
        <ele>18</ele>
        <time>2021-06-18T09:34:41+02:00</time>
      </trkpt>
      <trkpt lat="47.64546" lon="-3.18029">
        <ele>18</ele>
        <time>2021-06-18T09:34:46+02:00</time>
      </trkpt>
      <trkpt lat="47.64564" lon="-3.18053">
        <ele>18</ele>
        <time>2021-06-18T09:34:51+02:00</time>
      </trkpt>
      <trkpt lat="47.64582" lon="-3.1808">
        <ele>18</ele>
        <time>2021-06-18T09:34:56+02:00</time>
      </trkpt>
      <trkpt lat="47.64599" lon="-3.18107">
        <ele>18</ele>
        <time>2021-06-18T09:35:01+02:00</time>
      </trkpt>
      <trkpt lat="47.64616" lon="-3.18134">
        <ele>18</ele>
        <time>2021-06-18T09:35:06+02:00</time>
      </trkpt>
      <trkpt lat="47.64633" lon="-3.18165">
        <ele>19</ele>
        <time>2021-06-18T09:35:12+02:00</time>
      </trkpt>
      <trkpt lat="47.64645" lon="-3.18198">
        <ele>20</ele>
        <time>2021-06-18T09:35:19+02:00</time>
      </trkpt>
      <trkpt lat="47.6466" lon="-3.1823">
        <ele>20</ele>
        <time>2021-06-18T09:35:26+02:00</time>
      </trkpt>
      <trkpt lat="47.64685" lon="-3.18239">
        <ele>20</ele>
        <time>2021-06-18T09:35:32+02:00</time>
      </trkpt>
      <trkpt lat="47.64707" lon="-3.18245">
        <ele>19</ele>
        <time>2021-06-18T09:35:37+02:00</time>
      </trkpt>
      <trkpt lat="47.64731" lon="-3.18251">
        <ele>19</ele>
        <time>2021-06-18T09:35:42+02:00</time>
      </trkpt>
      <trkpt lat="47.64753" lon="-3.18269">
        <ele>18</ele>
        <time>2021-06-18T09:35:47+02:00</time>
      </trkpt>
      <trkpt lat="47.64771" lon="-3.18298">
        <ele>18</ele>
        <time>2021-06-18T09:35:52+02:00</time>
      </trkpt>
      <trkpt lat="47.64789" lon="-3.18326">
        <ele>17</ele>
        <time>2021-06-18T09:35:57+02:00</time>
      </trkpt>
      <trkpt lat="47.6481" lon="-3.18347">
        <ele>17</ele>
        <time>2021-06-18T09:36:02+02:00</time>
      </trkpt>
      <trkpt lat="47.64833" lon="-3.18363">
        <ele>17</ele>
        <time>2021-06-18T09:36:07+02:00</time>
      </trkpt>
      <trkpt lat="47.64855" lon="-3.18378">
        <ele>18</ele>
        <time>2021-06-18T09:36:12+02:00</time>
      </trkpt>
      <trkpt lat="47.64877" lon="-3.18394">
        <ele>18</ele>
        <time>2021-06-18T09:36:17+02:00</time>
      </trkpt>
      <trkpt lat="47.649" lon="-3.18411">
        <ele>17</ele>
        <time>2021-06-18T09:36:22+02:00</time>
      </trkpt>
      <trkpt lat="47.64926" lon="-3.18424">
        <ele>16</ele>
        <time>2021-06-18T09:36:27+02:00</time>
      </trkpt>
      <trkpt lat="47.64927" lon="-3.18461">
        <ele>15</ele>
        <time>2021-06-18T09:36:32+02:00</time>
      </trkpt>
      <trkpt lat="47.64917" lon="-3.18494">
        <ele>14</ele>
        <time>2021-06-18T09:36:37+02:00</time>
      </trkpt>
      <trkpt lat="47.64923" lon="-3.18529">
        <ele>15</ele>
        <time>2021-06-18T09:36:42+02:00</time>
      </trkpt>
      <trkpt lat="47.64934" lon="-3.18562">
        <ele>14</ele>
        <time>2021-06-18T09:36:47+02:00</time>
      </trkpt>
      <trkpt lat="47.64921" lon="-3.1859">
        <ele>15</ele>
        <time>2021-06-18T09:36:54+02:00</time>
      </trkpt>
      <trkpt lat="47.64898" lon="-3.18603">
        <ele>15</ele>
        <time>2021-06-18T09:37:00+02:00</time>
      </trkpt>
      <trkpt lat="47.64885" lon="-3.18632">
        <ele>15</ele>
        <time>2021-06-18T09:37:07+02:00</time>
      </trkpt>
      <trkpt lat="47.64893" lon="-3.18668">
        <ele>16</ele>
        <time>2021-06-18T09:37:13+02:00</time>
      </trkpt>
      <trkpt lat="47.64904" lon="-3.18704">
        <ele>16</ele>
        <time>2021-06-18T09:37:19+02:00</time>
      </trkpt>
      <trkpt lat="47.64914" lon="-3.1874">
        <ele>16</ele>
        <time>2021-06-18T09:37:25+02:00</time>
      </trkpt>
      <trkpt lat="47.64899" lon="-3.1877">
        <ele>16</ele>
        <time>2021-06-18T09:37:31+02:00</time>
      </trkpt>
      <trkpt lat="47.64878" lon="-3.18787">
        <ele>17</ele>
        <time>2021-06-18T09:37:36+02:00</time>
      </trkpt>
      <trkpt lat="47.64857" lon="-3.18806">
        <ele>16</ele>
        <time>2021-06-18T09:37:41+02:00</time>
      </trkpt>
      <trkpt lat="47.64841" lon="-3.18832">
        <ele>15</ele>
        <time>2021-06-18T09:37:47+02:00</time>
      </trkpt>
      <trkpt lat="47.64848" lon="-3.18868">
        <ele>14</ele>
        <time>2021-06-18T09:37:53+02:00</time>
      </trkpt>
      <trkpt lat="47.6485" lon="-3.18901">
        <ele>14</ele>
        <time>2021-06-18T09:37:58+02:00</time>
      </trkpt>
      <trkpt lat="47.64853" lon="-3.18937">
        <ele>15</ele>
        <time>2021-06-18T09:38:03+02:00</time>
      </trkpt>
      <trkpt lat="47.64856" lon="-3.18975">
        <ele>13</ele>
        <time>2021-06-18T09:38:08+02:00</time>
      </trkpt>
      <trkpt lat="47.64861" lon="-3.19011">
        <ele>14</ele>
        <time>2021-06-18T09:38:14+02:00</time>
      </trkpt>
      <trkpt lat="47.64842" lon="-3.19032">
        <ele>14</ele>
        <time>2021-06-18T09:38:21+02:00</time>
      </trkpt>
      <trkpt lat="47.64828" lon="-3.19065">
        <ele>14</ele>
        <time>2021-06-18T09:38:28+02:00</time>
      </trkpt>
      <trkpt lat="47.64826" lon="-3.19099">
        <ele>14</ele>
        <time>2021-06-18T09:38:33+02:00</time>
      </trkpt>
      <trkpt lat="47.64822" lon="-3.19132">
        <ele>13</ele>
        <time>2021-06-18T09:38:38+02:00</time>
      </trkpt>
      <trkpt lat="47.64815" lon="-3.19169">
        <ele>14</ele>
        <time>2021-06-18T09:38:44+02:00</time>
      </trkpt>
      <trkpt lat="47.64826" lon="-3.19202">
        <ele>15</ele>
        <time>2021-06-18T09:38:51+02:00</time>
      </trkpt>
      <trkpt lat="47.64811" lon="-3.19175">
        <ele>13</ele>
        <time>2021-06-18T09:39:19+02:00</time>
      </trkpt>
      <trkpt lat="47.64822" lon="-3.1914">
        <ele>14</ele>
        <time>2021-06-18T09:39:26+02:00</time>
      </trkpt>
      <trkpt lat="47.64826" lon="-3.19104">
        <ele>14</ele>
        <time>2021-06-18T09:39:32+02:00</time>
      </trkpt>
      <trkpt lat="47.6483" lon="-3.19069">
        <ele>14</ele>
        <time>2021-06-18T09:39:38+02:00</time>
      </trkpt>
      <trkpt lat="47.6484" lon="-3.19035">
        <ele>13</ele>
        <time>2021-06-18T09:39:47+02:00</time>
      </trkpt>
      <trkpt lat="47.64859" lon="-3.19012">
        <ele>14</ele>
        <time>2021-06-18T09:39:54+02:00</time>
      </trkpt>
      <trkpt lat="47.64858" lon="-3.18974">
        <ele>14</ele>
        <time>2021-06-18T09:40:02+02:00</time>
      </trkpt>
      <trkpt lat="47.64854" lon="-3.18938">
        <ele>15</ele>
        <time>2021-06-18T09:40:09+02:00</time>
      </trkpt>
      <trkpt lat="47.64851" lon="-3.18903">
        <ele>15</ele>
        <time>2021-06-18T09:40:15+02:00</time>
      </trkpt>
      <trkpt lat="47.64849" lon="-3.1887">
        <ele>15</ele>
        <time>2021-06-18T09:40:21+02:00</time>
      </trkpt>
      <trkpt lat="47.64842" lon="-3.18834">
        <ele>16</ele>
        <time>2021-06-18T09:40:28+02:00</time>
      </trkpt>
      <trkpt lat="47.64855" lon="-3.18806">
        <ele>16</ele>
        <time>2021-06-18T09:41:32+02:00</time>
      </trkpt>
      <trkpt lat="47.64875" lon="-3.1879">
        <ele>16</ele>
        <time>2021-06-18T09:41:39+02:00</time>
      </trkpt>
      <trkpt lat="47.64897" lon="-3.18774">
        <ele>17</ele>
        <time>2021-06-18T09:42:08+02:00</time>
      </trkpt>
      <trkpt lat="47.64916" lon="-3.18754">
        <ele>16</ele>
        <time>2021-06-18T09:42:14+02:00</time>
      </trkpt>
      <trkpt lat="47.64907" lon="-3.18718">
        <ele>18</ele>
        <time>2021-06-18T09:42:20+02:00</time>
      </trkpt>
      <trkpt lat="47.64899" lon="-3.18685">
        <ele>17</ele>
        <time>2021-06-18T09:42:25+02:00</time>
      </trkpt>
      <trkpt lat="47.6489" lon="-3.18647">
        <ele>17</ele>
        <time>2021-06-18T09:42:30+02:00</time>
      </trkpt>
      <trkpt lat="47.64883" lon="-3.18614">
        <ele>16</ele>
        <time>2021-06-18T09:42:35+02:00</time>
      </trkpt>
      <trkpt lat="47.64905" lon="-3.18597">
        <ele>16</ele>
        <time>2021-06-18T09:42:41+02:00</time>
      </trkpt>
      <trkpt lat="47.64929" lon="-3.18586">
        <ele>15</ele>
        <time>2021-06-18T09:42:47+02:00</time>
      </trkpt>
      <trkpt lat="47.64944" lon="-3.18614">
        <ele>15</ele>
        <time>2021-06-18T09:42:54+02:00</time>
      </trkpt>
      <trkpt lat="47.64929" lon="-3.18589">
        <ele>16</ele>
        <time>2021-06-18T09:43:11+02:00</time>
      </trkpt>
      <trkpt lat="47.64951" lon="-3.18569">
        <ele>15</ele>
        <time>2021-06-18T09:43:18+02:00</time>
      </trkpt>
      <trkpt lat="47.64975" lon="-3.18559">
        <ele>14</ele>
        <time>2021-06-18T09:43:24+02:00</time>
      </trkpt>
      <trkpt lat="47.64998" lon="-3.18569">
        <ele>14</ele>
        <time>2021-06-18T09:43:29+02:00</time>
      </trkpt>
      <trkpt lat="47.65016" lon="-3.18589">
        <ele>14</ele>
        <time>2021-06-18T09:43:33+02:00</time>
      </trkpt>
      <trkpt lat="47.6504" lon="-3.1861">
        <ele>11</ele>
        <time>2021-06-18T09:43:37+02:00</time>
      </trkpt>
      <trkpt lat="47.65066" lon="-3.18624">
        <ele>11</ele>
        <time>2021-06-18T09:43:41+02:00</time>
      </trkpt>
      <trkpt lat="47.65093" lon="-3.18624">
        <ele>10</ele>
        <time>2021-06-18T09:43:45+02:00</time>
      </trkpt>
      <trkpt lat="47.65118" lon="-3.18623">
        <ele>12</ele>
        <time>2021-06-18T09:43:49+02:00</time>
      </trkpt>
      <trkpt lat="47.65143" lon="-3.18636">
        <ele>12</ele>
        <time>2021-06-18T09:43:54+02:00</time>
      </trkpt>
      <trkpt lat="47.65168" lon="-3.18654">
        <ele>10</ele>
        <time>2021-06-18T09:43:59+02:00</time>
      </trkpt>
      <trkpt lat="47.65196" lon="-3.18665">
        <ele>9</ele>
        <time>2021-06-18T09:44:04+02:00</time>
      </trkpt>
      <trkpt lat="47.65218" lon="-3.1867">
        <ele>9</ele>
        <time>2021-06-18T09:44:08+02:00</time>
      </trkpt>
      <trkpt lat="47.65242" lon="-3.18674">
        <ele>9</ele>
        <time>2021-06-18T09:44:12+02:00</time>
      </trkpt>
      <trkpt lat="47.65265" lon="-3.18675">
        <ele>8</ele>
        <time>2021-06-18T09:44:16+02:00</time>
      </trkpt>
      <trkpt lat="47.65289" lon="-3.18675">
        <ele>8</ele>
        <time>2021-06-18T09:44:21+02:00</time>
      </trkpt>
      <trkpt lat="47.65293" lon="-3.18708">
        <ele>8</ele>
        <time>2021-06-18T09:44:32+02:00</time>
      </trkpt>
      <trkpt lat="47.65283" lon="-3.1874">
        <ele>9</ele>
        <time>2021-06-18T09:44:40+02:00</time>
      </trkpt>
      <trkpt lat="47.65272" lon="-3.18769">
        <ele>9</ele>
        <time>2021-06-18T09:44:47+02:00</time>
      </trkpt>
      <trkpt lat="47.65257" lon="-3.18801">
        <ele>11</ele>
        <time>2021-06-18T09:44:54+02:00</time>
      </trkpt>
      <trkpt lat="47.65243" lon="-3.1883">
        <ele>12</ele>
        <time>2021-06-18T09:45:01+02:00</time>
      </trkpt>
      <trkpt lat="47.65229" lon="-3.1886">
        <ele>14</ele>
        <time>2021-06-18T09:45:08+02:00</time>
      </trkpt>
      <trkpt lat="47.65213" lon="-3.18889">
        <ele>14</ele>
        <time>2021-06-18T09:45:15+02:00</time>
      </trkpt>
      <trkpt lat="47.65197" lon="-3.18921">
        <ele>15</ele>
        <time>2021-06-18T09:45:21+02:00</time>
      </trkpt>
      <trkpt lat="47.65182" lon="-3.1895">
        <ele>15</ele>
        <time>2021-06-18T09:45:26+02:00</time>
      </trkpt>
      <trkpt lat="47.65167" lon="-3.1898">
        <ele>15</ele>
        <time>2021-06-18T09:45:31+02:00</time>
      </trkpt>
      <trkpt lat="47.65152" lon="-3.19011">
        <ele>15</ele>
        <time>2021-06-18T09:45:36+02:00</time>
      </trkpt>
      <trkpt lat="47.65138" lon="-3.19043">
        <ele>16</ele>
        <time>2021-06-18T09:45:41+02:00</time>
      </trkpt>
      <trkpt lat="47.65125" lon="-3.19075">
        <ele>16</ele>
        <time>2021-06-18T09:45:46+02:00</time>
      </trkpt>
      <trkpt lat="47.65113" lon="-3.19107">
        <ele>16</ele>
        <time>2021-06-18T09:45:51+02:00</time>
      </trkpt>
      <trkpt lat="47.65102" lon="-3.19136">
        <ele>15</ele>
        <time>2021-06-18T09:45:55+02:00</time>
      </trkpt>
      <trkpt lat="47.65091" lon="-3.19168">
        <ele>15</ele>
        <time>2021-06-18T09:45:59+02:00</time>
      </trkpt>
      <trkpt lat="47.6508" lon="-3.192">
        <ele>13</ele>
        <time>2021-06-18T09:46:03+02:00</time>
      </trkpt>
      <trkpt lat="47.65062" lon="-3.19228">
        <ele>13</ele>
        <time>2021-06-18T09:46:07+02:00</time>
      </trkpt>
      <trkpt lat="47.65038" lon="-3.19237">
        <ele>14</ele>
        <time>2021-06-18T09:46:11+02:00</time>
      </trkpt>
      <trkpt lat="47.65015" lon="-3.19237">
        <ele>14</ele>
        <time>2021-06-18T09:46:15+02:00</time>
      </trkpt>
      <trkpt lat="47.64988" lon="-3.19248">
        <ele>14</ele>
        <time>2021-06-18T09:46:20+02:00</time>
      </trkpt>
      <trkpt lat="47.64965" lon="-3.19259">
        <ele>13</ele>
        <time>2021-06-18T09:46:24+02:00</time>
      </trkpt>
      <trkpt lat="47.6494" lon="-3.19268">
        <ele>12</ele>
        <time>2021-06-18T09:46:29+02:00</time>
      </trkpt>
      <trkpt lat="47.64949" lon="-3.19303">
        <ele>12</ele>
        <time>2021-06-18T09:46:36+02:00</time>
      </trkpt>
      <trkpt lat="47.64958" lon="-3.19343">
        <ele>11</ele>
        <time>2021-06-18T09:46:41+02:00</time>
      </trkpt>
      <trkpt lat="47.6496" lon="-3.1938">
        <ele>10</ele>
        <time>2021-06-18T09:46:45+02:00</time>
      </trkpt>
      <trkpt lat="47.64964" lon="-3.1942">
        <ele>9</ele>
        <time>2021-06-18T09:46:49+02:00</time>
      </trkpt>
      <trkpt lat="47.64968" lon="-3.19459">
        <ele>7</ele>
        <time>2021-06-18T09:46:53+02:00</time>
      </trkpt>
      <trkpt lat="47.64973" lon="-3.19498">
        <ele>8</ele>
        <time>2021-06-18T09:46:57+02:00</time>
      </trkpt>
      <trkpt lat="47.64984" lon="-3.19533">
        <ele>8</ele>
        <time>2021-06-18T09:47:01+02:00</time>
      </trkpt>
      <trkpt lat="47.65005" lon="-3.19557">
        <ele>7</ele>
        <time>2021-06-18T09:47:05+02:00</time>
      </trkpt>
      <trkpt lat="47.6503" lon="-3.19568">
        <ele>5</ele>
        <time>2021-06-18T09:47:09+02:00</time>
      </trkpt>
      <trkpt lat="47.65044" lon="-3.19597">
        <ele>7</ele>
        <time>2021-06-18T09:47:14+02:00</time>
      </trkpt>
      <trkpt lat="47.65033" lon="-3.19627">
        <ele>7</ele>
        <time>2021-06-18T09:47:18+02:00</time>
      </trkpt>
      <trkpt lat="47.65024" lon="-3.19658">
        <ele>7</ele>
        <time>2021-06-18T09:47:22+02:00</time>
      </trkpt>
      <trkpt lat="47.65012" lon="-3.19695">
        <ele>7</ele>
        <time>2021-06-18T09:47:27+02:00</time>
      </trkpt>
      <trkpt lat="47.65002" lon="-3.1973">
        <ele>7</ele>
        <time>2021-06-18T09:47:32+02:00</time>
      </trkpt>
      <trkpt lat="47.64991" lon="-3.19765">
        <ele>8</ele>
        <time>2021-06-18T09:47:37+02:00</time>
      </trkpt>
      <trkpt lat="47.6498" lon="-3.198">
        <ele>8</ele>
        <time>2021-06-18T09:47:42+02:00</time>
      </trkpt>
      <trkpt lat="47.64968" lon="-3.19834">
        <ele>8</ele>
        <time>2021-06-18T09:47:47+02:00</time>
      </trkpt>
      <trkpt lat="47.64987" lon="-3.19854">
        <ele>9</ele>
        <time>2021-06-18T09:47:53+02:00</time>
      </trkpt>
      <trkpt lat="47.65002" lon="-3.1988">
        <ele>9</ele>
        <time>2021-06-18T09:48:01+02:00</time>
      </trkpt>
      <trkpt lat="47.64989" lon="-3.19908">
        <ele>9</ele>
        <time>2021-06-18T09:48:42+02:00</time>
      </trkpt>
      <trkpt lat="47.64982" lon="-3.19946">
        <ele>9</ele>
        <time>2021-06-18T09:48:48+02:00</time>
      </trkpt>
      <trkpt lat="47.64977" lon="-3.19982">
        <ele>9</ele>
        <time>2021-06-18T09:48:53+02:00</time>
      </trkpt>
      <trkpt lat="47.64975" lon="-3.20019">
        <ele>8</ele>
        <time>2021-06-18T09:48:58+02:00</time>
      </trkpt>
      <trkpt lat="47.64973" lon="-3.20057">
        <ele>8</ele>
        <time>2021-06-18T09:49:03+02:00</time>
      </trkpt>
      <trkpt lat="47.64971" lon="-3.20095">
        <ele>8</ele>
        <time>2021-06-18T09:49:08+02:00</time>
      </trkpt>
      <trkpt lat="47.64969" lon="-3.20134">
        <ele>10</ele>
        <time>2021-06-18T09:49:13+02:00</time>
      </trkpt>
      <trkpt lat="47.64948" lon="-3.20157">
        <ele>10</ele>
        <time>2021-06-18T09:49:21+02:00</time>
      </trkpt>
      <trkpt lat="47.64925" lon="-3.20171">
        <ele>9</ele>
        <time>2021-06-18T09:49:25+02:00</time>
      </trkpt>
      <trkpt lat="47.64903" lon="-3.20192">
        <ele>9</ele>
        <time>2021-06-18T09:49:29+02:00</time>
      </trkpt>
      <trkpt lat="47.64882" lon="-3.20211">
        <ele>9</ele>
        <time>2021-06-18T09:49:33+02:00</time>
      </trkpt>
      <trkpt lat="47.6486" lon="-3.2023">
        <ele>9</ele>
        <time>2021-06-18T09:49:38+02:00</time>
      </trkpt>
      <trkpt lat="47.6484" lon="-3.20248">
        <ele>10</ele>
        <time>2021-06-18T09:49:43+02:00</time>
      </trkpt>
      <trkpt lat="47.64816" lon="-3.20258">
        <ele>9</ele>
        <time>2021-06-18T09:49:49+02:00</time>
      </trkpt>
      <trkpt lat="47.64796" lon="-3.20279">
        <ele>10</ele>
        <time>2021-06-18T09:49:56+02:00</time>
      </trkpt>
      <trkpt lat="47.64774" lon="-3.20292">
        <ele>11</ele>
        <time>2021-06-18T09:50:02+02:00</time>
      </trkpt>
      <trkpt lat="47.64752" lon="-3.20305">
        <ele>11</ele>
        <time>2021-06-18T09:50:07+02:00</time>
      </trkpt>
      <trkpt lat="47.64728" lon="-3.20316">
        <ele>11</ele>
        <time>2021-06-18T09:50:12+02:00</time>
      </trkpt>
      <trkpt lat="47.64704" lon="-3.20329">
        <ele>11</ele>
        <time>2021-06-18T09:50:17+02:00</time>
      </trkpt>
      <trkpt lat="47.64679" lon="-3.20342">
        <ele>11</ele>
        <time>2021-06-18T09:50:22+02:00</time>
      </trkpt>
      <trkpt lat="47.64657" lon="-3.20352">
        <ele>10</ele>
        <time>2021-06-18T09:50:26+02:00</time>
      </trkpt>
      <trkpt lat="47.64634" lon="-3.20364">
        <ele>10</ele>
        <time>2021-06-18T09:50:30+02:00</time>
      </trkpt>
      <trkpt lat="47.64612" lon="-3.20379">
        <ele>10</ele>
        <time>2021-06-18T09:50:34+02:00</time>
      </trkpt>
      <trkpt lat="47.64589" lon="-3.204">
        <ele>9</ele>
        <time>2021-06-18T09:50:38+02:00</time>
      </trkpt>
      <trkpt lat="47.64569" lon="-3.20425">
        <ele>9</ele>
        <time>2021-06-18T09:50:42+02:00</time>
      </trkpt>
      <trkpt lat="47.64552" lon="-3.20452">
        <ele>10</ele>
        <time>2021-06-18T09:50:46+02:00</time>
      </trkpt>
      <trkpt lat="47.64534" lon="-3.20478">
        <ele>10</ele>
        <time>2021-06-18T09:50:50+02:00</time>
      </trkpt>
      <trkpt lat="47.64516" lon="-3.20508">
        <ele>10</ele>
        <time>2021-06-18T09:50:55+02:00</time>
      </trkpt>
      <trkpt lat="47.64502" lon="-3.20535">
        <ele>9</ele>
        <time>2021-06-18T09:50:59+02:00</time>
      </trkpt>
      <trkpt lat="47.64487" lon="-3.20565">
        <ele>8</ele>
        <time>2021-06-18T09:51:03+02:00</time>
      </trkpt>
      <trkpt lat="47.64471" lon="-3.20595">
        <ele>7</ele>
        <time>2021-06-18T09:51:07+02:00</time>
      </trkpt>
      <trkpt lat="47.64456" lon="-3.20627">
        <ele>7</ele>
        <time>2021-06-18T09:51:11+02:00</time>
      </trkpt>
      <trkpt lat="47.6444" lon="-3.20655">
        <ele>7</ele>
        <time>2021-06-18T09:51:15+02:00</time>
      </trkpt>
      <trkpt lat="47.64423" lon="-3.20682">
        <ele>7</ele>
        <time>2021-06-18T09:51:19+02:00</time>
      </trkpt>
      <trkpt lat="47.64402" lon="-3.20698">
        <ele>6</ele>
        <time>2021-06-18T09:51:24+02:00</time>
      </trkpt>
      <trkpt lat="47.64377" lon="-3.20689">
        <ele>7</ele>
        <time>2021-06-18T09:51:29+02:00</time>
      </trkpt>
      <trkpt lat="47.64357" lon="-3.20673">
        <ele>8</ele>
        <time>2021-06-18T09:51:34+02:00</time>
      </trkpt>
      <trkpt lat="47.64338" lon="-3.20651">
        <ele>8</ele>
        <time>2021-06-18T09:51:39+02:00</time>
      </trkpt>
      <trkpt lat="47.64317" lon="-3.20625">
        <ele>7</ele>
        <time>2021-06-18T09:51:44+02:00</time>
      </trkpt>
      <trkpt lat="47.64298" lon="-3.206">
        <ele>7</ele>
        <time>2021-06-18T09:51:48+02:00</time>
      </trkpt>
      <trkpt lat="47.64278" lon="-3.20577">
        <ele>7</ele>
        <time>2021-06-18T09:51:52+02:00</time>
      </trkpt>
      <trkpt lat="47.64259" lon="-3.20554">
        <ele>6</ele>
        <time>2021-06-18T09:51:56+02:00</time>
      </trkpt>
      <trkpt lat="47.6424" lon="-3.20531">
        <ele>7</ele>
        <time>2021-06-18T09:52:00+02:00</time>
      </trkpt>
      <trkpt lat="47.64221" lon="-3.20508">
        <ele>7</ele>
        <time>2021-06-18T09:52:04+02:00</time>
      </trkpt>
      <trkpt lat="47.64203" lon="-3.20487">
        <ele>7</ele>
        <time>2021-06-18T09:52:08+02:00</time>
      </trkpt>
      <trkpt lat="47.64187" lon="-3.20462">
        <ele>7</ele>
        <time>2021-06-18T09:52:13+02:00</time>
      </trkpt>
      <trkpt lat="47.64162" lon="-3.20446">
        <ele>5</ele>
        <time>2021-06-18T09:54:10+02:00</time>
      </trkpt>
      <trkpt lat="47.64141" lon="-3.20424">
        <ele>5</ele>
        <time>2021-06-18T09:54:15+02:00</time>
      </trkpt>
      <trkpt lat="47.64119" lon="-3.20401">
        <ele>5</ele>
        <time>2021-06-18T09:54:20+02:00</time>
      </trkpt>
      <trkpt lat="47.641" lon="-3.2038">
        <ele>5</ele>
        <time>2021-06-18T09:54:25+02:00</time>
      </trkpt>
      <trkpt lat="47.64077" lon="-3.20369">
        <ele>5</ele>
        <time>2021-06-18T09:54:30+02:00</time>
      </trkpt>
      <trkpt lat="47.64051" lon="-3.20352">
        <ele>4</ele>
        <time>2021-06-18T09:54:35+02:00</time>
      </trkpt>
      <trkpt lat="47.64026" lon="-3.20338">
        <ele>4</ele>
        <time>2021-06-18T09:54:39+02:00</time>
      </trkpt>
      <trkpt lat="47.64002" lon="-3.20323">
        <ele>4</ele>
        <time>2021-06-18T09:54:43+02:00</time>
      </trkpt>
      <trkpt lat="47.63979" lon="-3.20302">
        <ele>5</ele>
        <time>2021-06-18T09:54:47+02:00</time>
      </trkpt>
      <trkpt lat="47.63952" lon="-3.203">
        <ele>5</ele>
        <time>2021-06-18T09:54:51+02:00</time>
      </trkpt>
      <trkpt lat="47.63927" lon="-3.20292">
        <ele>5</ele>
        <time>2021-06-18T09:54:55+02:00</time>
      </trkpt>
      <trkpt lat="47.63902" lon="-3.20276">
        <ele>8</ele>
        <time>2021-06-18T09:55:00+02:00</time>
      </trkpt>
      <trkpt lat="47.6388" lon="-3.20262">
        <ele>7</ele>
        <time>2021-06-18T09:55:05+02:00</time>
      </trkpt>
      <trkpt lat="47.63858" lon="-3.2024">
        <ele>6</ele>
        <time>2021-06-18T09:55:10+02:00</time>
      </trkpt>
      <trkpt lat="47.63831" lon="-3.20243">
        <ele>5</ele>
        <time>2021-06-18T09:55:14+02:00</time>
      </trkpt>
      <trkpt lat="47.63805" lon="-3.20262">
        <ele>6</ele>
        <time>2021-06-18T09:55:18+02:00</time>
      </trkpt>
      <trkpt lat="47.63785" lon="-3.20279">
        <ele>7</ele>
        <time>2021-06-18T09:55:22+02:00</time>
      </trkpt>
      <trkpt lat="47.63766" lon="-3.20301">
        <ele>8</ele>
        <time>2021-06-18T09:55:27+02:00</time>
      </trkpt>
      <trkpt lat="47.6375" lon="-3.20328">
        <ele>6</ele>
        <time>2021-06-18T09:55:32+02:00</time>
      </trkpt>
      <trkpt lat="47.63727" lon="-3.20345">
        <ele>6</ele>
        <time>2021-06-18T09:55:37+02:00</time>
      </trkpt>
      <trkpt lat="47.63704" lon="-3.2034">
        <ele>6</ele>
        <time>2021-06-18T09:55:41+02:00</time>
      </trkpt>
      <trkpt lat="47.63685" lon="-3.2032">
        <ele>6</ele>
        <time>2021-06-18T09:55:45+02:00</time>
      </trkpt>
      <trkpt lat="47.63665" lon="-3.20302">
        <ele>6</ele>
        <time>2021-06-18T09:55:49+02:00</time>
      </trkpt>
      <trkpt lat="47.63643" lon="-3.20285">
        <ele>6</ele>
        <time>2021-06-18T09:55:53+02:00</time>
      </trkpt>
      <trkpt lat="47.63621" lon="-3.20267">
        <ele>7</ele>
        <time>2021-06-18T09:55:57+02:00</time>
      </trkpt>
      <trkpt lat="47.63599" lon="-3.20247">
        <ele>7</ele>
        <time>2021-06-18T09:56:01+02:00</time>
      </trkpt>
      <trkpt lat="47.63576" lon="-3.20229">
        <ele>7</ele>
        <time>2021-06-18T09:56:05+02:00</time>
      </trkpt>
      <trkpt lat="47.63552" lon="-3.2021">
        <ele>6</ele>
        <time>2021-06-18T09:56:09+02:00</time>
      </trkpt>
      <trkpt lat="47.63527" lon="-3.20189">
        <ele>6</ele>
        <time>2021-06-18T09:56:13+02:00</time>
      </trkpt>
      <trkpt lat="47.63502" lon="-3.2017">
        <ele>7</ele>
        <time>2021-06-18T09:56:17+02:00</time>
      </trkpt>
      <trkpt lat="47.6348" lon="-3.2015">
        <ele>7</ele>
        <time>2021-06-18T09:56:22+02:00</time>
      </trkpt>
      <trkpt lat="47.63456" lon="-3.20131">
        <ele>7</ele>
        <time>2021-06-18T09:56:27+02:00</time>
      </trkpt>
      <trkpt lat="47.63435" lon="-3.20114">
        <ele>7</ele>
        <time>2021-06-18T09:56:31+02:00</time>
      </trkpt>
      <trkpt lat="47.63414" lon="-3.20096">
        <ele>7</ele>
        <time>2021-06-18T09:56:35+02:00</time>
      </trkpt>
      <trkpt lat="47.63394" lon="-3.20073">
        <ele>6</ele>
        <time>2021-06-18T09:56:39+02:00</time>
      </trkpt>
      <trkpt lat="47.63375" lon="-3.20049">
        <ele>7</ele>
        <time>2021-06-18T09:56:43+02:00</time>
      </trkpt>
      <trkpt lat="47.63349" lon="-3.20042">
        <ele>8</ele>
        <time>2021-06-18T09:56:48+02:00</time>
      </trkpt>
      <trkpt lat="47.63324" lon="-3.20039">
        <ele>9</ele>
        <time>2021-06-18T09:56:53+02:00</time>
      </trkpt>
      <trkpt lat="47.633" lon="-3.20015">
        <ele>8</ele>
        <time>2021-06-18T09:56:58+02:00</time>
      </trkpt>
      <trkpt lat="47.63282" lon="-3.19989">
        <ele>8</ele>
        <time>2021-06-18T09:57:02+02:00</time>
      </trkpt>
      <trkpt lat="47.63262" lon="-3.19962">
        <ele>9</ele>
        <time>2021-06-18T09:57:07+02:00</time>
      </trkpt>
      <trkpt lat="47.63244" lon="-3.19937">
        <ele>8</ele>
        <time>2021-06-18T09:57:12+02:00</time>
      </trkpt>
      <trkpt lat="47.63222" lon="-3.19915">
        <ele>7</ele>
        <time>2021-06-18T09:57:16+02:00</time>
      </trkpt>
      <trkpt lat="47.63201" lon="-3.19897">
        <ele>7</ele>
        <time>2021-06-18T09:57:20+02:00</time>
      </trkpt>
      <trkpt lat="47.6318" lon="-3.19879">
        <ele>7</ele>
        <time>2021-06-18T09:57:24+02:00</time>
      </trkpt>
      <trkpt lat="47.63158" lon="-3.19862">
        <ele>7</ele>
        <time>2021-06-18T09:57:28+02:00</time>
      </trkpt>
      <trkpt lat="47.63137" lon="-3.19844">
        <ele>7</ele>
        <time>2021-06-18T09:57:32+02:00</time>
      </trkpt>
      <trkpt lat="47.63115" lon="-3.19827">
        <ele>8</ele>
        <time>2021-06-18T09:57:36+02:00</time>
      </trkpt>
      <trkpt lat="47.63092" lon="-3.19815">
        <ele>8</ele>
        <time>2021-06-18T09:57:40+02:00</time>
      </trkpt>
      <trkpt lat="47.63069" lon="-3.19805">
        <ele>9</ele>
        <time>2021-06-18T09:57:44+02:00</time>
      </trkpt>
      <trkpt lat="47.63047" lon="-3.19789">
        <ele>9</ele>
        <time>2021-06-18T09:57:48+02:00</time>
      </trkpt>
      <trkpt lat="47.63023" lon="-3.19772">
        <ele>9</ele>
        <time>2021-06-18T09:57:52+02:00</time>
      </trkpt>
      <trkpt lat="47.62999" lon="-3.19753">
        <ele>10</ele>
        <time>2021-06-18T09:57:56+02:00</time>
      </trkpt>
      <trkpt lat="47.62976" lon="-3.19732">
        <ele>10</ele>
        <time>2021-06-18T09:58:00+02:00</time>
      </trkpt>
      <trkpt lat="47.62953" lon="-3.19712">
        <ele>10</ele>
        <time>2021-06-18T09:58:04+02:00</time>
      </trkpt>
      <trkpt lat="47.62931" lon="-3.19693">
        <ele>10</ele>
        <time>2021-06-18T09:58:08+02:00</time>
      </trkpt>
      <trkpt lat="47.62907" lon="-3.19679">
        <ele>9</ele>
        <time>2021-06-18T09:58:12+02:00</time>
      </trkpt>
      <trkpt lat="47.62879" lon="-3.19673">
        <ele>9</ele>
        <time>2021-06-18T09:58:16+02:00</time>
      </trkpt>
      <trkpt lat="47.62856" lon="-3.19673">
        <ele>8</ele>
        <time>2021-06-18T09:58:20+02:00</time>
      </trkpt>
      <trkpt lat="47.62833" lon="-3.19676">
        <ele>9</ele>
        <time>2021-06-18T09:58:27+02:00</time>
      </trkpt>
      <trkpt lat="47.62809" lon="-3.19677">
        <ele>10</ele>
        <time>2021-06-18T09:58:33+02:00</time>
      </trkpt>
      <trkpt lat="47.62785" lon="-3.19678">
        <ele>10</ele>
        <time>2021-06-18T09:58:38+02:00</time>
      </trkpt>
      <trkpt lat="47.62759" lon="-3.19679">
        <ele>10</ele>
        <time>2021-06-18T09:58:43+02:00</time>
      </trkpt>
      <trkpt lat="47.62732" lon="-3.19678">
        <ele>10</ele>
        <time>2021-06-18T09:58:48+02:00</time>
      </trkpt>
      <trkpt lat="47.62708" lon="-3.1968">
        <ele>8</ele>
        <time>2021-06-18T09:58:53+02:00</time>
      </trkpt>
      <trkpt lat="47.62683" lon="-3.19679">
        <ele>8</ele>
        <time>2021-06-18T09:58:57+02:00</time>
      </trkpt>
      <trkpt lat="47.62658" lon="-3.19678">
        <ele>8</ele>
        <time>2021-06-18T09:59:01+02:00</time>
      </trkpt>
      <trkpt lat="47.62634" lon="-3.19676">
        <ele>9</ele>
        <time>2021-06-18T09:59:05+02:00</time>
      </trkpt>
      <trkpt lat="47.62611" lon="-3.19675">
        <ele>8</ele>
        <time>2021-06-18T09:59:09+02:00</time>
      </trkpt>
      <trkpt lat="47.62588" lon="-3.19674">
        <ele>9</ele>
        <time>2021-06-18T09:59:13+02:00</time>
      </trkpt>
      <trkpt lat="47.62566" lon="-3.19674">
        <ele>7</ele>
        <time>2021-06-18T09:59:17+02:00</time>
      </trkpt>
      <trkpt lat="47.62543" lon="-3.19674">
        <ele>8</ele>
        <time>2021-06-18T09:59:21+02:00</time>
      </trkpt>
      <trkpt lat="47.62519" lon="-3.19673">
        <ele>8</ele>
        <time>2021-06-18T09:59:25+02:00</time>
      </trkpt>
      <trkpt lat="47.62496" lon="-3.19671">
        <ele>8</ele>
        <time>2021-06-18T09:59:29+02:00</time>
      </trkpt>
      <trkpt lat="47.62472" lon="-3.19671">
        <ele>8</ele>
        <time>2021-06-18T09:59:33+02:00</time>
      </trkpt>
      <trkpt lat="47.62446" lon="-3.1967">
        <ele>8</ele>
        <time>2021-06-18T09:59:37+02:00</time>
      </trkpt>
      <trkpt lat="47.62424" lon="-3.19666">
        <ele>8</ele>
        <time>2021-06-18T09:59:41+02:00</time>
      </trkpt>
      <trkpt lat="47.62409" lon="-3.19639">
        <ele>7</ele>
        <time>2021-06-18T09:59:45+02:00</time>
      </trkpt>
      <trkpt lat="47.62394" lon="-3.19613">
        <ele>7</ele>
        <time>2021-06-18T09:59:49+02:00</time>
      </trkpt>
      <trkpt lat="47.62382" lon="-3.19584">
        <ele>8</ele>
        <time>2021-06-18T09:59:53+02:00</time>
      </trkpt>
      <trkpt lat="47.62368" lon="-3.19554">
        <ele>8</ele>
        <time>2021-06-18T09:59:57+02:00</time>
      </trkpt>
      <trkpt lat="47.62353" lon="-3.19521">
        <ele>9</ele>
        <time>2021-06-18T10:00:02+02:00</time>
      </trkpt>
      <trkpt lat="47.62337" lon="-3.19493">
        <ele>9</ele>
        <time>2021-06-18T10:00:07+02:00</time>
      </trkpt>
      <trkpt lat="47.62324" lon="-3.19464">
        <ele>8</ele>
        <time>2021-06-18T10:00:12+02:00</time>
      </trkpt>
      <trkpt lat="47.62311" lon="-3.19434">
        <ele>9</ele>
        <time>2021-06-18T10:00:16+02:00</time>
      </trkpt>
      <trkpt lat="47.62298" lon="-3.19402">
        <ele>8</ele>
        <time>2021-06-18T10:00:20+02:00</time>
      </trkpt>
      <trkpt lat="47.62285" lon="-3.19368">
        <ele>8</ele>
        <time>2021-06-18T10:00:24+02:00</time>
      </trkpt>
      <trkpt lat="47.62272" lon="-3.19337">
        <ele>8</ele>
        <time>2021-06-18T10:00:28+02:00</time>
      </trkpt>
      <trkpt lat="47.62259" lon="-3.19305">
        <ele>8</ele>
        <time>2021-06-18T10:00:32+02:00</time>
      </trkpt>
      <trkpt lat="47.62246" lon="-3.19273">
        <ele>8</ele>
        <time>2021-06-18T10:00:36+02:00</time>
      </trkpt>
      <trkpt lat="47.62247" lon="-3.19238">
        <ele>8</ele>
        <time>2021-06-18T10:00:40+02:00</time>
      </trkpt>
      <trkpt lat="47.62249" lon="-3.192">
        <ele>8</ele>
        <time>2021-06-18T10:00:45+02:00</time>
      </trkpt>
      <trkpt lat="47.62255" lon="-3.19161">
        <ele>8</ele>
        <time>2021-06-18T10:00:50+02:00</time>
      </trkpt>
      <trkpt lat="47.6226" lon="-3.19122">
        <ele>9</ele>
        <time>2021-06-18T10:00:55+02:00</time>
      </trkpt>
      <trkpt lat="47.62266" lon="-3.19088">
        <ele>9</ele>
        <time>2021-06-18T10:01:00+02:00</time>
      </trkpt>
      <trkpt lat="47.62271" lon="-3.1905">
        <ele>10</ele>
        <time>2021-06-18T10:01:06+02:00</time>
      </trkpt>
      <trkpt lat="47.62276" lon="-3.19012">
        <ele>10</ele>
        <time>2021-06-18T10:01:12+02:00</time>
      </trkpt>
      <trkpt lat="47.62278" lon="-3.18973">
        <ele>11</ele>
        <time>2021-06-18T10:01:18+02:00</time>
      </trkpt>
      <trkpt lat="47.62277" lon="-3.18937">
        <ele>11</ele>
        <time>2021-06-18T10:01:23+02:00</time>
      </trkpt>
      <trkpt lat="47.62268" lon="-3.18899">
        <ele>11</ele>
        <time>2021-06-18T10:01:28+02:00</time>
      </trkpt>
      <trkpt lat="47.62253" lon="-3.18865">
        <ele>11</ele>
        <time>2021-06-18T10:01:33+02:00</time>
      </trkpt>
      <trkpt lat="47.62243" lon="-3.18835">
        <ele>11</ele>
        <time>2021-06-18T10:01:37+02:00</time>
      </trkpt>
      <trkpt lat="47.62236" lon="-3.18804">
        <ele>12</ele>
        <time>2021-06-18T10:01:41+02:00</time>
      </trkpt>
      <trkpt lat="47.62232" lon="-3.18769">
        <ele>11</ele>
        <time>2021-06-18T10:01:45+02:00</time>
      </trkpt>
      <trkpt lat="47.62231" lon="-3.18735">
        <ele>12</ele>
        <time>2021-06-18T10:01:49+02:00</time>
      </trkpt>
      <trkpt lat="47.62234" lon="-3.18696">
        <ele>12</ele>
        <time>2021-06-18T10:01:54+02:00</time>
      </trkpt>
      <trkpt lat="47.62239" lon="-3.18661">
        <ele>13</ele>
        <time>2021-06-18T10:01:59+02:00</time>
      </trkpt>
      <trkpt lat="47.62243" lon="-3.18626">
        <ele>13</ele>
        <time>2021-06-18T10:02:04+02:00</time>
      </trkpt>
      <trkpt lat="47.62251" lon="-3.18592">
        <ele>12</ele>
        <time>2021-06-18T10:02:09+02:00</time>
      </trkpt>
      <trkpt lat="47.62259" lon="-3.18552">
        <ele>10</ele>
        <time>2021-06-18T10:02:14+02:00</time>
      </trkpt>
      <trkpt lat="47.62266" lon="-3.18518">
        <ele>10</ele>
        <time>2021-06-18T10:02:18+02:00</time>
      </trkpt>
      <trkpt lat="47.62274" lon="-3.18484">
        <ele>10</ele>
        <time>2021-06-18T10:02:22+02:00</time>
      </trkpt>
      <trkpt lat="47.6228" lon="-3.18452">
        <ele>11</ele>
        <time>2021-06-18T10:02:26+02:00</time>
      </trkpt>
      <trkpt lat="47.62287" lon="-3.18412">
        <ele>10</ele>
        <time>2021-06-18T10:02:31+02:00</time>
      </trkpt>
      <trkpt lat="47.62292" lon="-3.18372">
        <ele>11</ele>
        <time>2021-06-18T10:02:36+02:00</time>
      </trkpt>
      <trkpt lat="47.62289" lon="-3.18339">
        <ele>10</ele>
        <time>2021-06-18T10:02:40+02:00</time>
      </trkpt>
      <trkpt lat="47.62283" lon="-3.18305">
        <ele>10</ele>
        <time>2021-06-18T10:02:44+02:00</time>
      </trkpt>
      <trkpt lat="47.62276" lon="-3.1827">
        <ele>10</ele>
        <time>2021-06-18T10:02:48+02:00</time>
      </trkpt>
      <trkpt lat="47.62274" lon="-3.18233">
        <ele>9</ele>
        <time>2021-06-18T10:02:52+02:00</time>
      </trkpt>
      <trkpt lat="47.62278" lon="-3.18197">
        <ele>9</ele>
        <time>2021-06-18T10:02:56+02:00</time>
      </trkpt>
      <trkpt lat="47.6228" lon="-3.18163">
        <ele>10</ele>
        <time>2021-06-18T10:03:00+02:00</time>
      </trkpt>
      <trkpt lat="47.62281" lon="-3.18122">
        <ele>10</ele>
        <time>2021-06-18T10:03:05+02:00</time>
      </trkpt>
      <trkpt lat="47.62285" lon="-3.18082">
        <ele>10</ele>
        <time>2021-06-18T10:03:10+02:00</time>
      </trkpt>
      <trkpt lat="47.623" lon="-3.18048">
        <ele>10</ele>
        <time>2021-06-18T10:03:15+02:00</time>
      </trkpt>
      <trkpt lat="47.6232" lon="-3.1803">
        <ele>10</ele>
        <time>2021-06-18T10:03:19+02:00</time>
      </trkpt>
      <trkpt lat="47.62335" lon="-3.18004">
        <ele>11</ele>
        <time>2021-06-18T10:03:24+02:00</time>
      </trkpt>
      <trkpt lat="47.62319" lon="-3.1798">
        <ele>11</ele>
        <time>2021-06-18T10:03:29+02:00</time>
      </trkpt>
      <trkpt lat="47.62294" lon="-3.17985">
        <ele>11</ele>
        <time>2021-06-18T10:03:34+02:00</time>
      </trkpt>
      <trkpt lat="47.62268" lon="-3.17991">
        <ele>11</ele>
        <time>2021-06-18T10:03:39+02:00</time>
      </trkpt>
      <trkpt lat="47.62246" lon="-3.17997">
        <ele>11</ele>
        <time>2021-06-18T10:03:43+02:00</time>
      </trkpt>
      <trkpt lat="47.62222" lon="-3.18002">
        <ele>11</ele>
        <time>2021-06-18T10:03:47+02:00</time>
      </trkpt>
      <trkpt lat="47.62197" lon="-3.18006">
        <ele>10</ele>
        <time>2021-06-18T10:03:51+02:00</time>
      </trkpt>
      <trkpt lat="47.62174" lon="-3.17995">
        <ele>11</ele>
        <time>2021-06-18T10:03:55+02:00</time>
      </trkpt>
      <trkpt lat="47.62153" lon="-3.17972">
        <ele>9</ele>
        <time>2021-06-18T10:03:59+02:00</time>
      </trkpt>
      <trkpt lat="47.62131" lon="-3.17948">
        <ele>9</ele>
        <time>2021-06-18T10:04:03+02:00</time>
      </trkpt>
      <trkpt lat="47.62111" lon="-3.17924">
        <ele>10</ele>
        <time>2021-06-18T10:04:07+02:00</time>
      </trkpt>
      <trkpt lat="47.62093" lon="-3.17897">
        <ele>9</ele>
        <time>2021-06-18T10:04:11+02:00</time>
      </trkpt>
      <trkpt lat="47.62077" lon="-3.17866">
        <ele>8</ele>
        <time>2021-06-18T10:04:15+02:00</time>
      </trkpt>
      <trkpt lat="47.62055" lon="-3.17849">
        <ele>7</ele>
        <time>2021-06-18T10:04:18+02:00</time>
      </trkpt>
      <trkpt lat="47.62033" lon="-3.17841">
        <ele>7</ele>
        <time>2021-06-18T10:04:21+02:00</time>
      </trkpt>
      <trkpt lat="47.62007" lon="-3.1783">
        <ele>6</ele>
        <time>2021-06-18T10:04:25+02:00</time>
      </trkpt>
      <trkpt lat="47.61982" lon="-3.17813">
        <ele>6</ele>
        <time>2021-06-18T10:04:29+02:00</time>
      </trkpt>
      <trkpt lat="47.6196" lon="-3.1779">
        <ele>7</ele>
        <time>2021-06-18T10:04:33+02:00</time>
      </trkpt>
      <trkpt lat="47.61941" lon="-3.1777">
        <ele>9</ele>
        <time>2021-06-18T10:04:37+02:00</time>
      </trkpt>
      <trkpt lat="47.61921" lon="-3.17749">
        <ele>11</ele>
        <time>2021-06-18T10:04:43+02:00</time>
      </trkpt>
      <trkpt lat="47.61901" lon="-3.1773">
        <ele>13</ele>
        <time>2021-06-18T10:04:52+02:00</time>
      </trkpt>
      <trkpt lat="47.61882" lon="-3.17711">
        <ele>14</ele>
        <time>2021-06-18T10:04:59+02:00</time>
      </trkpt>
      <trkpt lat="47.61865" lon="-3.17684">
        <ele>14</ele>
        <time>2021-06-18T10:05:05+02:00</time>
      </trkpt>
      <trkpt lat="47.61849" lon="-3.17655">
        <ele>14</ele>
        <time>2021-06-18T10:05:11+02:00</time>
      </trkpt>
      <trkpt lat="47.61827" lon="-3.17633">
        <ele>14</ele>
        <time>2021-06-18T10:05:17+02:00</time>
      </trkpt>
      <trkpt lat="47.618" lon="-3.17622">
        <ele>13</ele>
        <time>2021-06-18T10:05:22+02:00</time>
      </trkpt>
      <trkpt lat="47.61778" lon="-3.17613">
        <ele>14</ele>
        <time>2021-06-18T10:05:26+02:00</time>
      </trkpt>
      <trkpt lat="47.61755" lon="-3.17604">
        <ele>13</ele>
        <time>2021-06-18T10:05:30+02:00</time>
      </trkpt>
      <trkpt lat="47.61729" lon="-3.17596">
        <ele>13</ele>
        <time>2021-06-18T10:05:34+02:00</time>
      </trkpt>
      <trkpt lat="47.61701" lon="-3.17594">
        <ele>12</ele>
        <time>2021-06-18T10:05:38+02:00</time>
      </trkpt>
      <trkpt lat="47.61671" lon="-3.17591">
        <ele>11</ele>
        <time>2021-06-18T10:05:42+02:00</time>
      </trkpt>
      <trkpt lat="47.61644" lon="-3.17588">
        <ele>12</ele>
        <time>2021-06-18T10:05:46+02:00</time>
      </trkpt>
      <trkpt lat="47.61616" lon="-3.17593">
        <ele>11</ele>
        <time>2021-06-18T10:05:50+02:00</time>
      </trkpt>
      <trkpt lat="47.61588" lon="-3.17598">
        <ele>10</ele>
        <time>2021-06-18T10:05:54+02:00</time>
      </trkpt>
      <trkpt lat="47.61559" lon="-3.17602">
        <ele>10</ele>
        <time>2021-06-18T10:05:58+02:00</time>
      </trkpt>
      <trkpt lat="47.61531" lon="-3.17603">
        <ele>9</ele>
        <time>2021-06-18T10:06:02+02:00</time>
      </trkpt>
      <trkpt lat="47.6151" lon="-3.17579">
        <ele>9</ele>
        <time>2021-06-18T10:06:06+02:00</time>
      </trkpt>
      <trkpt lat="47.61493" lon="-3.17544">
        <ele>8</ele>
        <time>2021-06-18T10:06:10+02:00</time>
      </trkpt>
      <trkpt lat="47.61484" lon="-3.17513">
        <ele>7</ele>
        <time>2021-06-18T10:06:13+02:00</time>
      </trkpt>
      <trkpt lat="47.61477" lon="-3.1748">
        <ele>7</ele>
        <time>2021-06-18T10:06:16+02:00</time>
      </trkpt>
      <trkpt lat="47.61475" lon="-3.17438">
        <ele>7</ele>
        <time>2021-06-18T10:06:20+02:00</time>
      </trkpt>
      <trkpt lat="47.61479" lon="-3.17397">
        <ele>6</ele>
        <time>2021-06-18T10:06:24+02:00</time>
      </trkpt>
      <trkpt lat="47.61478" lon="-3.17356">
        <ele>7</ele>
        <time>2021-06-18T10:06:28+02:00</time>
      </trkpt>
      <trkpt lat="47.61485" lon="-3.17325">
        <ele>7</ele>
        <time>2021-06-18T10:06:32+02:00</time>
      </trkpt>
      <trkpt lat="47.61503" lon="-3.17297">
        <ele>8</ele>
        <time>2021-06-18T10:06:37+02:00</time>
      </trkpt>
      <trkpt lat="47.61516" lon="-3.17268">
        <ele>8</ele>
        <time>2021-06-18T10:06:42+02:00</time>
      </trkpt>
      <trkpt lat="47.61517" lon="-3.17229">
        <ele>8</ele>
        <time>2021-06-18T10:06:47+02:00</time>
      </trkpt>
      <trkpt lat="47.61495" lon="-3.17207">
        <ele>8</ele>
        <time>2021-06-18T10:06:52+02:00</time>
      </trkpt>
      <trkpt lat="47.61469" lon="-3.1719">
        <ele>9</ele>
        <time>2021-06-18T10:06:57+02:00</time>
      </trkpt>
      <trkpt lat="47.6145" lon="-3.17168">
        <ele>7</ele>
        <time>2021-06-18T10:07:01+02:00</time>
      </trkpt>
      <trkpt lat="47.61431" lon="-3.17139">
        <ele>7</ele>
        <time>2021-06-18T10:07:05+02:00</time>
      </trkpt>
      <trkpt lat="47.61418" lon="-3.17106">
        <ele>6</ele>
        <time>2021-06-18T10:07:09+02:00</time>
      </trkpt>
      <trkpt lat="47.61409" lon="-3.17073">
        <ele>7</ele>
        <time>2021-06-18T10:07:13+02:00</time>
      </trkpt>
      <trkpt lat="47.61388" lon="-3.17054">
        <ele>6</ele>
        <time>2021-06-18T10:07:17+02:00</time>
      </trkpt>
      <trkpt lat="47.61368" lon="-3.17032">
        <ele>6</ele>
        <time>2021-06-18T10:07:21+02:00</time>
      </trkpt>
      <trkpt lat="47.61352" lon="-3.17005">
        <ele>7</ele>
        <time>2021-06-18T10:07:25+02:00</time>
      </trkpt>
      <trkpt lat="47.61338" lon="-3.16977">
        <ele>7</ele>
        <time>2021-06-18T10:07:29+02:00</time>
      </trkpt>
      <trkpt lat="47.61324" lon="-3.16949">
        <ele>6</ele>
        <time>2021-06-18T10:07:33+02:00</time>
      </trkpt>
      <trkpt lat="47.6131" lon="-3.16921">
        <ele>7</ele>
        <time>2021-06-18T10:07:37+02:00</time>
      </trkpt>
      <trkpt lat="47.61296" lon="-3.16893">
        <ele>8</ele>
        <time>2021-06-18T10:07:41+02:00</time>
      </trkpt>
      <trkpt lat="47.61283" lon="-3.16866">
        <ele>8</ele>
        <time>2021-06-18T10:07:45+02:00</time>
      </trkpt>
      <trkpt lat="47.61267" lon="-3.16836">
        <ele>8</ele>
        <time>2021-06-18T10:07:50+02:00</time>
      </trkpt>
      <trkpt lat="47.6125" lon="-3.16806">
        <ele>9</ele>
        <time>2021-06-18T10:07:56+02:00</time>
      </trkpt>
      <trkpt lat="47.61237" lon="-3.16777">
        <ele>9</ele>
        <time>2021-06-18T10:08:01+02:00</time>
      </trkpt>
      <trkpt lat="47.61222" lon="-3.16746">
        <ele>8</ele>
        <time>2021-06-18T10:08:06+02:00</time>
      </trkpt>
      <trkpt lat="47.61208" lon="-3.1672">
        <ele>8</ele>
        <time>2021-06-18T10:08:10+02:00</time>
      </trkpt>
      <trkpt lat="47.61193" lon="-3.16692">
        <ele>9</ele>
        <time>2021-06-18T10:08:14+02:00</time>
      </trkpt>
      <trkpt lat="47.61178" lon="-3.16661">
        <ele>9</ele>
        <time>2021-06-18T10:08:18+02:00</time>
      </trkpt>
      <trkpt lat="47.61163" lon="-3.16636">
        <ele>8</ele>
        <time>2021-06-18T10:08:22+02:00</time>
      </trkpt>
      <trkpt lat="47.6118" lon="-3.16613">
        <ele>8</ele>
        <time>2021-06-18T10:08:30+02:00</time>
      </trkpt>
      <trkpt lat="47.61185" lon="-3.16578">
        <ele>9</ele>
        <time>2021-06-18T10:08:40+02:00</time>
      </trkpt>
      <trkpt lat="47.61174" lon="-3.16545">
        <ele>9</ele>
        <time>2021-06-18T10:08:46+02:00</time>
      </trkpt>
      <trkpt lat="47.61162" lon="-3.16513">
        <ele>8</ele>
        <time>2021-06-18T10:08:51+02:00</time>
      </trkpt>
      <trkpt lat="47.61151" lon="-3.16477">
        <ele>8</ele>
        <time>2021-06-18T10:08:56+02:00</time>
      </trkpt>
      <trkpt lat="47.6114" lon="-3.16447">
        <ele>8</ele>
        <time>2021-06-18T10:09:00+02:00</time>
      </trkpt>
      <trkpt lat="47.6113" lon="-3.16417">
        <ele>8</ele>
        <time>2021-06-18T10:09:04+02:00</time>
      </trkpt>
      <trkpt lat="47.61118" lon="-3.16385">
        <ele>8</ele>
        <time>2021-06-18T10:09:08+02:00</time>
      </trkpt>
      <trkpt lat="47.61108" lon="-3.16352">
        <ele>7</ele>
        <time>2021-06-18T10:09:12+02:00</time>
      </trkpt>
      <trkpt lat="47.61095" lon="-3.16319">
        <ele>7</ele>
        <time>2021-06-18T10:09:16+02:00</time>
      </trkpt>
      <trkpt lat="47.61083" lon="-3.16285">
        <ele>6</ele>
        <time>2021-06-18T10:09:20+02:00</time>
      </trkpt>
      <trkpt lat="47.6106" lon="-3.16265">
        <ele>5</ele>
        <time>2021-06-18T10:09:24+02:00</time>
      </trkpt>
      <trkpt lat="47.61033" lon="-3.16264">
        <ele>5</ele>
        <time>2021-06-18T10:09:28+02:00</time>
      </trkpt>
      <trkpt lat="47.61006" lon="-3.16261">
        <ele>6</ele>
        <time>2021-06-18T10:09:32+02:00</time>
      </trkpt>
      <trkpt lat="47.60983" lon="-3.16247">
        <ele>6</ele>
        <time>2021-06-18T10:09:36+02:00</time>
      </trkpt>
      <trkpt lat="47.60965" lon="-3.16221">
        <ele>7</ele>
        <time>2021-06-18T10:09:40+02:00</time>
      </trkpt>
      <trkpt lat="47.60968" lon="-3.16187">
        <ele>7</ele>
        <time>2021-06-18T10:09:44+02:00</time>
      </trkpt>
      <trkpt lat="47.60984" lon="-3.16163">
        <ele>7</ele>
        <time>2021-06-18T10:09:48+02:00</time>
      </trkpt>
      <trkpt lat="47.61001" lon="-3.1613">
        <ele>7</ele>
        <time>2021-06-18T10:09:53+02:00</time>
      </trkpt>
      <trkpt lat="47.61004" lon="-3.16093">
        <ele>7</ele>
        <time>2021-06-18T10:09:58+02:00</time>
      </trkpt>
      <trkpt lat="47.60986" lon="-3.16064">
        <ele>7</ele>
        <time>2021-06-18T10:10:03+02:00</time>
      </trkpt>
      <trkpt lat="47.60983" lon="-3.16026">
        <ele>8</ele>
        <time>2021-06-18T10:10:09+02:00</time>
      </trkpt>
      <trkpt lat="47.60971" lon="-3.15994">
        <ele>7</ele>
        <time>2021-06-18T10:10:15+02:00</time>
      </trkpt>
      <trkpt lat="47.60955" lon="-3.15967">
        <ele>7</ele>
        <time>2021-06-18T10:10:20+02:00</time>
      </trkpt>
      <trkpt lat="47.60941" lon="-3.15933">
        <ele>6</ele>
        <time>2021-06-18T10:10:25+02:00</time>
      </trkpt>
      <trkpt lat="47.60926" lon="-3.15908">
        <ele>7</ele>
        <time>2021-06-18T10:10:30+02:00</time>
      </trkpt>
      <trkpt lat="47.60917" lon="-3.15873">
        <ele>8</ele>
        <time>2021-06-18T10:10:36+02:00</time>
      </trkpt>
      <trkpt lat="47.60906" lon="-3.15843">
        <ele>7</ele>
        <time>2021-06-18T10:10:42+02:00</time>
      </trkpt>
      <trkpt lat="47.60892" lon="-3.15816">
        <ele>7</ele>
        <time>2021-06-18T10:11:00+02:00</time>
      </trkpt>
      <trkpt lat="47.60907" lon="-3.15785">
        <ele>7</ele>
        <time>2021-06-18T10:11:11+02:00</time>
      </trkpt>
      <trkpt lat="47.60916" lon="-3.15749">
        <ele>7</ele>
        <time>2021-06-18T10:11:18+02:00</time>
      </trkpt>
      <trkpt lat="47.60927" lon="-3.15717">
        <ele>7</ele>
        <time>2021-06-18T10:11:24+02:00</time>
      </trkpt>
      <trkpt lat="47.60934" lon="-3.15679">
        <ele>7</ele>
        <time>2021-06-18T10:11:30+02:00</time>
      </trkpt>
      <trkpt lat="47.60943" lon="-3.15648">
        <ele>7</ele>
        <time>2021-06-18T10:11:35+02:00</time>
      </trkpt>
      <trkpt lat="47.60955" lon="-3.15616">
        <ele>6</ele>
        <time>2021-06-18T10:11:40+02:00</time>
      </trkpt>
      <trkpt lat="47.60968" lon="-3.15586">
        <ele>6</ele>
        <time>2021-06-18T10:11:45+02:00</time>
      </trkpt>
      <trkpt lat="47.60981" lon="-3.15554">
        <ele>6</ele>
        <time>2021-06-18T10:11:50+02:00</time>
      </trkpt>
      <trkpt lat="47.6099" lon="-3.15518">
        <ele>7</ele>
        <time>2021-06-18T10:11:55+02:00</time>
      </trkpt>
      <trkpt lat="47.61001" lon="-3.15482">
        <ele>7</ele>
        <time>2021-06-18T10:12:00+02:00</time>
      </trkpt>
      <trkpt lat="47.61014" lon="-3.1545">
        <ele>7</ele>
        <time>2021-06-18T10:12:05+02:00</time>
      </trkpt>
      <trkpt lat="47.6103" lon="-3.15424">
        <ele>8</ele>
        <time>2021-06-18T10:12:10+02:00</time>
      </trkpt>
      <trkpt lat="47.61044" lon="-3.15395">
        <ele>8</ele>
        <time>2021-06-18T10:12:15+02:00</time>
      </trkpt>
      <trkpt lat="47.61058" lon="-3.15367">
        <ele>8</ele>
        <time>2021-06-18T10:12:20+02:00</time>
      </trkpt>
      <trkpt lat="47.61072" lon="-3.1534">
        <ele>9</ele>
        <time>2021-06-18T10:12:25+02:00</time>
      </trkpt>
      <trkpt lat="47.61069" lon="-3.15302">
        <ele>9</ele>
        <time>2021-06-18T10:12:32+02:00</time>
      </trkpt>
      <trkpt lat="47.61082" lon="-3.15268">
        <ele>9</ele>
        <time>2021-06-18T10:12:38+02:00</time>
      </trkpt>
      <trkpt lat="47.61093" lon="-3.15239">
        <ele>9</ele>
        <time>2021-06-18T10:12:43+02:00</time>
      </trkpt>
      <trkpt lat="47.61106" lon="-3.15206">
        <ele>9</ele>
        <time>2021-06-18T10:12:49+02:00</time>
      </trkpt>
      <trkpt lat="47.61118" lon="-3.15175">
        <ele>10</ele>
        <time>2021-06-18T10:12:54+02:00</time>
      </trkpt>
      <trkpt lat="47.6113" lon="-3.1514">
        <ele>10</ele>
        <time>2021-06-18T10:12:59+02:00</time>
      </trkpt>
      <trkpt lat="47.61143" lon="-3.15109">
        <ele>11</ele>
        <time>2021-06-18T10:13:04+02:00</time>
      </trkpt>
      <trkpt lat="47.61157" lon="-3.15076">
        <ele>11</ele>
        <time>2021-06-18T10:13:10+02:00</time>
      </trkpt>
      <trkpt lat="47.61168" lon="-3.15042">
        <ele>11</ele>
        <time>2021-06-18T10:13:16+02:00</time>
      </trkpt>
      <trkpt lat="47.61181" lon="-3.15011">
        <ele>12</ele>
        <time>2021-06-18T10:13:22+02:00</time>
      </trkpt>
      <trkpt lat="47.61193" lon="-3.14977">
        <ele>13</ele>
        <time>2021-06-18T10:13:28+02:00</time>
      </trkpt>
      <trkpt lat="47.61206" lon="-3.14943">
        <ele>12</ele>
        <time>2021-06-18T10:13:34+02:00</time>
      </trkpt>
      <trkpt lat="47.61221" lon="-3.1491">
        <ele>12</ele>
        <time>2021-06-18T10:13:40+02:00</time>
      </trkpt>
      <trkpt lat="47.61233" lon="-3.14881">
        <ele>13</ele>
        <time>2021-06-18T10:13:45+02:00</time>
      </trkpt>
      <trkpt lat="47.61244" lon="-3.14851">
        <ele>13</ele>
        <time>2021-06-18T10:13:50+02:00</time>
      </trkpt>
      <trkpt lat="47.61256" lon="-3.14821">
        <ele>13</ele>
        <time>2021-06-18T10:13:56+02:00</time>
      </trkpt>
      <trkpt lat="47.61269" lon="-3.14793">
        <ele>13</ele>
        <time>2021-06-18T10:14:03+02:00</time>
      </trkpt>
      <trkpt lat="47.61282" lon="-3.14759">
        <ele>14</ele>
        <time>2021-06-18T10:14:10+02:00</time>
      </trkpt>
      <trkpt lat="47.61274" lon="-3.14726">
        <ele>14</ele>
        <time>2021-06-18T10:14:32+02:00</time>
      </trkpt>
      <trkpt lat="47.61257" lon="-3.14698">
        <ele>13</ele>
        <time>2021-06-18T10:14:41+02:00</time>
      </trkpt>
      <trkpt lat="47.6124" lon="-3.1467">
        <ele>11</ele>
        <time>2021-06-18T10:14:49+02:00</time>
      </trkpt>
      <trkpt lat="47.61228" lon="-3.1464">
        <ele>12</ele>
        <time>2021-06-18T10:14:57+02:00</time>
      </trkpt>
      <trkpt lat="47.6122" lon="-3.14608">
        <ele>12</ele>
        <time>2021-06-18T10:15:08+02:00</time>
      </trkpt>
      <trkpt lat="47.61208" lon="-3.14574">
        <ele>12</ele>
        <time>2021-06-18T10:15:16+02:00</time>
      </trkpt>
      <trkpt lat="47.61194" lon="-3.14546">
        <ele>12</ele>
        <time>2021-06-18T10:15:22+02:00</time>
      </trkpt>
      <trkpt lat="47.61177" lon="-3.1452">
        <ele>12</ele>
        <time>2021-06-18T10:15:28+02:00</time>
      </trkpt>
      <trkpt lat="47.6116" lon="-3.14493">
        <ele>12</ele>
        <time>2021-06-18T10:15:34+02:00</time>
      </trkpt>
      <trkpt lat="47.61146" lon="-3.14464">
        <ele>12</ele>
        <time>2021-06-18T10:15:40+02:00</time>
      </trkpt>
      <trkpt lat="47.61132" lon="-3.14431">
        <ele>12</ele>
        <time>2021-06-18T10:15:46+02:00</time>
      </trkpt>
      <trkpt lat="47.61121" lon="-3.14402">
        <ele>12</ele>
        <time>2021-06-18T10:15:51+02:00</time>
      </trkpt>
      <trkpt lat="47.61108" lon="-3.14374">
        <ele>12</ele>
        <time>2021-06-18T10:15:56+02:00</time>
      </trkpt>
      <trkpt lat="47.61096" lon="-3.1434">
        <ele>12</ele>
        <time>2021-06-18T10:16:02+02:00</time>
      </trkpt>
      <trkpt lat="47.61084" lon="-3.14311">
        <ele>12</ele>
        <time>2021-06-18T10:16:07+02:00</time>
      </trkpt>
      <trkpt lat="47.61071" lon="-3.14276">
        <ele>12</ele>
        <time>2021-06-18T10:16:13+02:00</time>
      </trkpt>
      <trkpt lat="47.61059" lon="-3.14248">
        <ele>12</ele>
        <time>2021-06-18T10:16:18+02:00</time>
      </trkpt>
      <trkpt lat="47.61045" lon="-3.14217">
        <ele>12</ele>
        <time>2021-06-18T10:16:24+02:00</time>
      </trkpt>
      <trkpt lat="47.61032" lon="-3.1419">
        <ele>12</ele>
        <time>2021-06-18T10:16:29+02:00</time>
      </trkpt>
      <trkpt lat="47.6102" lon="-3.14161">
        <ele>13</ele>
        <time>2021-06-18T10:16:34+02:00</time>
      </trkpt>
      <trkpt lat="47.61009" lon="-3.1413">
        <ele>12</ele>
        <time>2021-06-18T10:16:39+02:00</time>
      </trkpt>
      <trkpt lat="47.60999" lon="-3.14099">
        <ele>12</ele>
        <time>2021-06-18T10:16:44+02:00</time>
      </trkpt>
      <trkpt lat="47.60985" lon="-3.1407">
        <ele>12</ele>
        <time>2021-06-18T10:16:49+02:00</time>
      </trkpt>
      <trkpt lat="47.60971" lon="-3.14043">
        <ele>13</ele>
        <time>2021-06-18T10:16:54+02:00</time>
      </trkpt>
      <trkpt lat="47.60959" lon="-3.14013">
        <ele>13</ele>
        <time>2021-06-18T10:16:59+02:00</time>
      </trkpt>
      <trkpt lat="47.60946" lon="-3.13984">
        <ele>13</ele>
        <time>2021-06-18T10:17:04+02:00</time>
      </trkpt>
      <trkpt lat="47.60931" lon="-3.13954">
        <ele>13</ele>
        <time>2021-06-18T10:17:09+02:00</time>
      </trkpt>
      <trkpt lat="47.6091" lon="-3.13941">
        <ele>13</ele>
        <time>2021-06-18T10:17:14+02:00</time>
      </trkpt>
      <trkpt lat="47.60885" lon="-3.13948">
        <ele>13</ele>
        <time>2021-06-18T10:17:19+02:00</time>
      </trkpt>
      <trkpt lat="47.60861" lon="-3.13952">
        <ele>13</ele>
        <time>2021-06-18T10:17:24+02:00</time>
      </trkpt>
      <trkpt lat="47.6084" lon="-3.13936">
        <ele>13</ele>
        <time>2021-06-18T10:17:29+02:00</time>
      </trkpt>
      <trkpt lat="47.60815" lon="-3.13919">
        <ele>12</ele>
        <time>2021-06-18T10:17:34+02:00</time>
      </trkpt>
      <trkpt lat="47.60793" lon="-3.13915">
        <ele>12</ele>
        <time>2021-06-18T10:17:38+02:00</time>
      </trkpt>
      <trkpt lat="47.6077" lon="-3.1391">
        <ele>12</ele>
        <time>2021-06-18T10:17:42+02:00</time>
      </trkpt>
      <trkpt lat="47.60747" lon="-3.13894">
        <ele>13</ele>
        <time>2021-06-18T10:17:46+02:00</time>
      </trkpt>
      <trkpt lat="47.60727" lon="-3.13877">
        <ele>12</ele>
        <time>2021-06-18T10:17:50+02:00</time>
      </trkpt>
      <trkpt lat="47.60701" lon="-3.13876">
        <ele>11</ele>
        <time>2021-06-18T10:17:54+02:00</time>
      </trkpt>
      <trkpt lat="47.60687" lon="-3.13849">
        <ele>11</ele>
        <time>2021-06-18T10:17:59+02:00</time>
      </trkpt>
      <trkpt lat="47.60665" lon="-3.13835">
        <ele>10</ele>
        <time>2021-06-18T10:18:07+02:00</time>
      </trkpt>
      <trkpt lat="47.6064" lon="-3.13843">
        <ele>11</ele>
        <time>2021-06-18T10:18:13+02:00</time>
      </trkpt>
      <trkpt lat="47.60615" lon="-3.13852">
        <ele>10</ele>
        <time>2021-06-18T10:18:18+02:00</time>
      </trkpt>
      <trkpt lat="47.60587" lon="-3.13855">
        <ele>10</ele>
        <time>2021-06-18T10:18:23+02:00</time>
      </trkpt>
      <trkpt lat="47.60563" lon="-3.1386">
        <ele>10</ele>
        <time>2021-06-18T10:18:27+02:00</time>
      </trkpt>
      <trkpt lat="47.60538" lon="-3.13861">
        <ele>9</ele>
        <time>2021-06-18T10:18:31+02:00</time>
      </trkpt>
      <trkpt lat="47.60513" lon="-3.13858">
        <ele>10</ele>
        <time>2021-06-18T10:18:35+02:00</time>
      </trkpt>
      <trkpt lat="47.60487" lon="-3.13854">
        <ele>9</ele>
        <time>2021-06-18T10:18:39+02:00</time>
      </trkpt>
      <trkpt lat="47.60461" lon="-3.13849">
        <ele>10</ele>
        <time>2021-06-18T10:18:43+02:00</time>
      </trkpt>
      <trkpt lat="47.60435" lon="-3.13844">
        <ele>9</ele>
        <time>2021-06-18T10:18:47+02:00</time>
      </trkpt>
      <trkpt lat="47.60408" lon="-3.13837">
        <ele>9</ele>
        <time>2021-06-18T10:18:51+02:00</time>
      </trkpt>
      <trkpt lat="47.60382" lon="-3.13833">
        <ele>9</ele>
        <time>2021-06-18T10:18:55+02:00</time>
      </trkpt>
      <trkpt lat="47.60359" lon="-3.13828">
        <ele>8</ele>
        <time>2021-06-18T10:18:59+02:00</time>
      </trkpt>
      <trkpt lat="47.6035" lon="-3.13797">
        <ele>7</ele>
        <time>2021-06-18T10:19:08+02:00</time>
      </trkpt>
      <trkpt lat="47.6035" lon="-3.13761">
        <ele>7</ele>
        <time>2021-06-18T10:19:13+02:00</time>
      </trkpt>
      <trkpt lat="47.6035" lon="-3.1372">
        <ele>6</ele>
        <time>2021-06-18T10:19:18+02:00</time>
      </trkpt>
      <trkpt lat="47.60351" lon="-3.13685">
        <ele>6</ele>
        <time>2021-06-18T10:19:22+02:00</time>
      </trkpt>
      <trkpt lat="47.60352" lon="-3.1365">
        <ele>5</ele>
        <time>2021-06-18T10:19:26+02:00</time>
      </trkpt>
      <trkpt lat="47.60368" lon="-3.13626">
        <ele>5</ele>
        <time>2021-06-18T10:19:31+02:00</time>
      </trkpt>
      <trkpt lat="47.60387" lon="-3.13597">
        <ele>4</ele>
        <time>2021-06-18T10:19:36+02:00</time>
      </trkpt>
      <trkpt lat="47.60405" lon="-3.13569">
        <ele>6</ele>
        <time>2021-06-18T10:19:41+02:00</time>
      </trkpt>
      <trkpt lat="47.60426" lon="-3.13556">
        <ele>5</ele>
        <time>2021-06-18T10:19:45+02:00</time>
      </trkpt>
      <trkpt lat="47.6045" lon="-3.13535">
        <ele>4</ele>
        <time>2021-06-18T10:19:50+02:00</time>
      </trkpt>
      <trkpt lat="47.60466" lon="-3.13508">
        <ele>5</ele>
        <time>2021-06-18T10:19:55+02:00</time>
      </trkpt>
      <trkpt lat="47.60481" lon="-3.1348">
        <ele>4</ele>
        <time>2021-06-18T10:20:01+02:00</time>
      </trkpt>
      <trkpt lat="47.60475" lon="-3.13445">
        <ele>6</ele>
        <time>2021-06-18T10:20:06+02:00</time>
      </trkpt>
      <trkpt lat="47.60477" lon="-3.13406">
        <ele>8</ele>
        <time>2021-06-18T10:20:11+02:00</time>
      </trkpt>
      <trkpt lat="47.60475" lon="-3.13371">
        <ele>8</ele>
        <time>2021-06-18T10:20:16+02:00</time>
      </trkpt>
      <trkpt lat="47.60467" lon="-3.13339">
        <ele>9</ele>
        <time>2021-06-18T10:20:21+02:00</time>
      </trkpt>
      <trkpt lat="47.60453" lon="-3.13312">
        <ele>9</ele>
        <time>2021-06-18T10:20:26+02:00</time>
      </trkpt>
      <trkpt lat="47.60436" lon="-3.1329">
        <ele>9</ele>
        <time>2021-06-18T10:20:31+02:00</time>
      </trkpt>
      <trkpt lat="47.60415" lon="-3.13267">
        <ele>9</ele>
        <time>2021-06-18T10:20:37+02:00</time>
      </trkpt>
      <trkpt lat="47.60397" lon="-3.13244">
        <ele>10</ele>
        <time>2021-06-18T10:20:43+02:00</time>
      </trkpt>
      <trkpt lat="47.60375" lon="-3.13227">
        <ele>12</ele>
        <time>2021-06-18T10:20:50+02:00</time>
      </trkpt>
      <trkpt lat="47.60352" lon="-3.13221">
        <ele>13</ele>
        <time>2021-06-18T10:20:58+02:00</time>
      </trkpt>
      <trkpt lat="47.60329" lon="-3.13217">
        <ele>12</ele>
        <time>2021-06-18T10:21:05+02:00</time>
      </trkpt>
      <trkpt lat="47.60304" lon="-3.13213">
        <ele>12</ele>
        <time>2021-06-18T10:21:11+02:00</time>
      </trkpt>
      <trkpt lat="47.60282" lon="-3.13201">
        <ele>11</ele>
        <time>2021-06-18T10:21:16+02:00</time>
      </trkpt>
      <trkpt lat="47.60262" lon="-3.13182">
        <ele>13</ele>
        <time>2021-06-18T10:21:22+02:00</time>
      </trkpt>
      <trkpt lat="47.6025" lon="-3.13153">
        <ele>15</ele>
        <time>2021-06-18T10:21:31+02:00</time>
      </trkpt>
      <trkpt lat="47.60243" lon="-3.1312">
        <ele>16</ele>
        <time>2021-06-18T10:21:42+02:00</time>
      </trkpt>
      <trkpt lat="47.60229" lon="-3.13092">
        <ele>16</ele>
        <time>2021-06-18T10:21:49+02:00</time>
      </trkpt>
      <trkpt lat="47.60211" lon="-3.13064">
        <ele>15</ele>
        <time>2021-06-18T10:21:55+02:00</time>
      </trkpt>
      <trkpt lat="47.60195" lon="-3.13034">
        <ele>15</ele>
        <time>2021-06-18T10:22:00+02:00</time>
      </trkpt>
      <trkpt lat="47.60186" lon="-3.13">
        <ele>15</ele>
        <time>2021-06-18T10:22:05+02:00</time>
      </trkpt>
      <trkpt lat="47.60184" lon="-3.12965">
        <ele>16</ele>
        <time>2021-06-18T10:22:10+02:00</time>
      </trkpt>
      <trkpt lat="47.60168" lon="-3.12938">
        <ele>16</ele>
        <time>2021-06-18T10:22:16+02:00</time>
      </trkpt>
      <trkpt lat="47.60154" lon="-3.1291">
        <ele>18</ele>
        <time>2021-06-18T10:22:23+02:00</time>
      </trkpt>
      <trkpt lat="47.60153" lon="-3.12874">
        <ele>18</ele>
        <time>2021-06-18T10:22:30+02:00</time>
      </trkpt>
      <trkpt lat="47.6016" lon="-3.12839">
        <ele>19</ele>
        <time>2021-06-18T10:22:36+02:00</time>
      </trkpt>
      <trkpt lat="47.60169" lon="-3.12803">
        <ele>19</ele>
        <time>2021-06-18T10:22:42+02:00</time>
      </trkpt>
      <trkpt lat="47.60171" lon="-3.12767">
        <ele>19</ele>
        <time>2021-06-18T10:22:48+02:00</time>
      </trkpt>
      <trkpt lat="47.60171" lon="-3.12733">
        <ele>19</ele>
        <time>2021-06-18T10:22:54+02:00</time>
      </trkpt>
      <trkpt lat="47.6017" lon="-3.12698">
        <ele>20</ele>
        <time>2021-06-18T10:23:00+02:00</time>
      </trkpt>
      <trkpt lat="47.60171" lon="-3.12662">
        <ele>20</ele>
        <time>2021-06-18T10:23:06+02:00</time>
      </trkpt>
      <trkpt lat="47.60172" lon="-3.12628">
        <ele>20</ele>
        <time>2021-06-18T10:23:11+02:00</time>
      </trkpt>
      <trkpt lat="47.60174" lon="-3.12589">
        <ele>20</ele>
        <time>2021-06-18T10:23:17+02:00</time>
      </trkpt>
      <trkpt lat="47.60174" lon="-3.12553">
        <ele>22</ele>
        <time>2021-06-18T10:23:24+02:00</time>
      </trkpt>
      <trkpt lat="47.60174" lon="-3.12518">
        <ele>21</ele>
        <time>2021-06-18T10:23:32+02:00</time>
      </trkpt>
      <trkpt lat="47.6018" lon="-3.12479">
        <ele>20</ele>
        <time>2021-06-18T10:23:38+02:00</time>
      </trkpt>
      <trkpt lat="47.60185" lon="-3.12442">
        <ele>20</ele>
        <time>2021-06-18T10:23:43+02:00</time>
      </trkpt>
      <trkpt lat="47.60189" lon="-3.12403">
        <ele>20</ele>
        <time>2021-06-18T10:23:48+02:00</time>
      </trkpt>
      <trkpt lat="47.60189" lon="-3.12366">
        <ele>20</ele>
        <time>2021-06-18T10:23:53+02:00</time>
      </trkpt>
      <trkpt lat="47.60188" lon="-3.12328">
        <ele>20</ele>
        <time>2021-06-18T10:23:58+02:00</time>
      </trkpt>
      <trkpt lat="47.6019" lon="-3.1229">
        <ele>19</ele>
        <time>2021-06-18T10:24:03+02:00</time>
      </trkpt>
      <trkpt lat="47.60181" lon="-3.12256">
        <ele>18</ele>
        <time>2021-06-18T10:24:09+02:00</time>
      </trkpt>
      <trkpt lat="47.60167" lon="-3.12226">
        <ele>18</ele>
        <time>2021-06-18T10:24:14+02:00</time>
      </trkpt>
      <trkpt lat="47.6015" lon="-3.12196">
        <ele>19</ele>
        <time>2021-06-18T10:24:20+02:00</time>
      </trkpt>
      <trkpt lat="47.60139" lon="-3.12166">
        <ele>19</ele>
        <time>2021-06-18T10:24:26+02:00</time>
      </trkpt>
      <trkpt lat="47.60119" lon="-3.12138">
        <ele>20</ele>
        <time>2021-06-18T10:24:32+02:00</time>
      </trkpt>
      <trkpt lat="47.60101" lon="-3.12116">
        <ele>20</ele>
        <time>2021-06-18T10:24:37+02:00</time>
      </trkpt>
      <trkpt lat="47.60082" lon="-3.12094">
        <ele>20</ele>
        <time>2021-06-18T10:24:42+02:00</time>
      </trkpt>
      <trkpt lat="47.60066" lon="-3.12071">
        <ele>21</ele>
        <time>2021-06-18T10:24:47+02:00</time>
      </trkpt>
      <trkpt lat="47.60049" lon="-3.12049">
        <ele>22</ele>
        <time>2021-06-18T10:24:52+02:00</time>
      </trkpt>
      <trkpt lat="47.6003" lon="-3.12028">
        <ele>21</ele>
        <time>2021-06-18T10:24:57+02:00</time>
      </trkpt>
      <trkpt lat="47.60009" lon="-3.12004">
        <ele>21</ele>
        <time>2021-06-18T10:25:03+02:00</time>
      </trkpt>
      <trkpt lat="47.59991" lon="-3.11982">
        <ele>21</ele>
        <time>2021-06-18T10:25:08+02:00</time>
      </trkpt>
      <trkpt lat="47.5997" lon="-3.11957">
        <ele>21</ele>
        <time>2021-06-18T10:25:13+02:00</time>
      </trkpt>
      <trkpt lat="47.59949" lon="-3.11933">
        <ele>21</ele>
        <time>2021-06-18T10:25:18+02:00</time>
      </trkpt>
      <trkpt lat="47.59932" lon="-3.11912">
        <ele>20</ele>
        <time>2021-06-18T10:25:22+02:00</time>
      </trkpt>
      <trkpt lat="47.59916" lon="-3.11885">
        <ele>20</ele>
        <time>2021-06-18T10:25:26+02:00</time>
      </trkpt>
      <trkpt lat="47.59904" lon="-3.11853">
        <ele>19</ele>
        <time>2021-06-18T10:25:30+02:00</time>
      </trkpt>
      <trkpt lat="47.59893" lon="-3.11819">
        <ele>18</ele>
        <time>2021-06-18T10:25:34+02:00</time>
      </trkpt>
      <trkpt lat="47.59879" lon="-3.11787">
        <ele>17</ele>
        <time>2021-06-18T10:25:38+02:00</time>
      </trkpt>
      <trkpt lat="47.59858" lon="-3.11766">
        <ele>18</ele>
        <time>2021-06-18T10:25:42+02:00</time>
      </trkpt>
      <trkpt lat="47.59832" lon="-3.1177">
        <ele>18</ele>
        <time>2021-06-18T10:25:47+02:00</time>
      </trkpt>
      <trkpt lat="47.59806" lon="-3.11776">
        <ele>16</ele>
        <time>2021-06-18T10:25:52+02:00</time>
      </trkpt>
      <trkpt lat="47.59782" lon="-3.1178">
        <ele>15</ele>
        <time>2021-06-18T10:25:57+02:00</time>
      </trkpt>
      <trkpt lat="47.59778" lon="-3.11814">
        <ele>13</ele>
        <time>2021-06-18T10:26:04+02:00</time>
      </trkpt>
      <trkpt lat="47.59756" lon="-3.11839">
        <ele>15</ele>
        <time>2021-06-18T10:26:11+02:00</time>
      </trkpt>
      <trkpt lat="47.59736" lon="-3.11854">
        <ele>12</ele>
        <time>2021-06-18T10:26:33+02:00</time>
      </trkpt>
      <trkpt lat="47.59742" lon="-3.1182">
        <ele>13</ele>
        <time>2021-06-18T10:26:42+02:00</time>
      </trkpt>
      <trkpt lat="47.59722" lon="-3.11801">
        <ele>12</ele>
        <time>2021-06-18T10:26:48+02:00</time>
      </trkpt>
      <trkpt lat="47.59701" lon="-3.11782">
        <ele>14</ele>
        <time>2021-06-18T10:26:54+02:00</time>
      </trkpt>
      <trkpt lat="47.59681" lon="-3.11767">
        <ele>16</ele>
        <time>2021-06-18T10:27:01+02:00</time>
      </trkpt>
      <trkpt lat="47.59657" lon="-3.11765">
        <ele>17</ele>
        <time>2021-06-18T10:27:09+02:00</time>
      </trkpt>
      <trkpt lat="47.59639" lon="-3.11739">
        <ele>17</ele>
        <time>2021-06-18T10:27:17+02:00</time>
      </trkpt>
      <trkpt lat="47.59633" lon="-3.11703">
        <ele>17</ele>
        <time>2021-06-18T10:27:24+02:00</time>
      </trkpt>
      <trkpt lat="47.59625" lon="-3.11666">
        <ele>18</ele>
        <time>2021-06-18T10:27:31+02:00</time>
      </trkpt>
      <trkpt lat="47.5962" lon="-3.11629">
        <ele>19</ele>
        <time>2021-06-18T10:27:38+02:00</time>
      </trkpt>
      <trkpt lat="47.59626" lon="-3.11594">
        <ele>19</ele>
        <time>2021-06-18T10:27:44+02:00</time>
      </trkpt>
      <trkpt lat="47.5963" lon="-3.11559">
        <ele>19</ele>
        <time>2021-06-18T10:27:50+02:00</time>
      </trkpt>
      <trkpt lat="47.59635" lon="-3.11523">
        <ele>19</ele>
        <time>2021-06-18T10:27:56+02:00</time>
      </trkpt>
      <trkpt lat="47.59641" lon="-3.11488">
        <ele>21</ele>
        <time>2021-06-18T10:28:02+02:00</time>
      </trkpt>
      <trkpt lat="47.59643" lon="-3.11453">
        <ele>24</ele>
        <time>2021-06-18T10:28:12+02:00</time>
      </trkpt>
      <trkpt lat="47.59641" lon="-3.11418">
        <ele>25</ele>
        <time>2021-06-18T10:28:22+02:00</time>
      </trkpt>
      <trkpt lat="47.59638" lon="-3.11384">
        <ele>26</ele>
        <time>2021-06-18T10:28:30+02:00</time>
      </trkpt>
      <trkpt lat="47.59633" lon="-3.11348">
        <ele>25</ele>
        <time>2021-06-18T10:28:38+02:00</time>
      </trkpt>
      <trkpt lat="47.59633" lon="-3.1131">
        <ele>26</ele>
        <time>2021-06-18T10:28:45+02:00</time>
      </trkpt>
      <trkpt lat="47.5963" lon="-3.11273">
        <ele>25</ele>
        <time>2021-06-18T10:28:51+02:00</time>
      </trkpt>
      <trkpt lat="47.59603" lon="-3.11276">
        <ele>24</ele>
        <time>2021-06-18T10:28:57+02:00</time>
      </trkpt>
      <trkpt lat="47.59575" lon="-3.11278">
        <ele>22</ele>
        <time>2021-06-18T10:29:02+02:00</time>
      </trkpt>
      <trkpt lat="47.59549" lon="-3.11277">
        <ele>21</ele>
        <time>2021-06-18T10:29:06+02:00</time>
      </trkpt>
      <trkpt lat="47.59522" lon="-3.11266">
        <ele>21</ele>
        <time>2021-06-18T10:29:10+02:00</time>
      </trkpt>
      <trkpt lat="47.59497" lon="-3.11242">
        <ele>20</ele>
        <time>2021-06-18T10:29:14+02:00</time>
      </trkpt>
      <trkpt lat="47.59474" lon="-3.11234">
        <ele>18</ele>
        <time>2021-06-18T10:29:17+02:00</time>
      </trkpt>
      <trkpt lat="47.59447" lon="-3.1123">
        <ele>17</ele>
        <time>2021-06-18T10:29:20+02:00</time>
      </trkpt>
      <trkpt lat="47.59419" lon="-3.11234">
        <ele>16</ele>
        <time>2021-06-18T10:29:23+02:00</time>
      </trkpt>
      <trkpt lat="47.59391" lon="-3.11237">
        <ele>15</ele>
        <time>2021-06-18T10:29:26+02:00</time>
      </trkpt>
      <trkpt lat="47.59364" lon="-3.11241">
        <ele>14</ele>
        <time>2021-06-18T10:29:29+02:00</time>
      </trkpt>
      <trkpt lat="47.59336" lon="-3.11244">
        <ele>14</ele>
        <time>2021-06-18T10:29:32+02:00</time>
      </trkpt>
      <trkpt lat="47.59309" lon="-3.11244">
        <ele>13</ele>
        <time>2021-06-18T10:29:35+02:00</time>
      </trkpt>
      <trkpt lat="47.59285" lon="-3.11235">
        <ele>13</ele>
        <time>2021-06-18T10:29:38+02:00</time>
      </trkpt>
      <trkpt lat="47.59263" lon="-3.11226">
        <ele>14</ele>
        <time>2021-06-18T10:29:41+02:00</time>
      </trkpt>
      <trkpt lat="47.59237" lon="-3.11212">
        <ele>14</ele>
        <time>2021-06-18T10:29:45+02:00</time>
      </trkpt>
      <trkpt lat="47.59214" lon="-3.11196">
        <ele>15</ele>
        <time>2021-06-18T10:29:49+02:00</time>
      </trkpt>
      <trkpt lat="47.59193" lon="-3.11177">
        <ele>16</ele>
        <time>2021-06-18T10:29:54+02:00</time>
      </trkpt>
      <trkpt lat="47.59169" lon="-3.11178">
        <ele>18</ele>
        <time>2021-06-18T10:30:00+02:00</time>
      </trkpt>
      <trkpt lat="47.59146" lon="-3.1119">
        <ele>17</ele>
        <time>2021-06-18T10:30:06+02:00</time>
      </trkpt>
      <trkpt lat="47.59132" lon="-3.1122">
        <ele>16</ele>
        <time>2021-06-18T10:30:11+02:00</time>
      </trkpt>
      <trkpt lat="47.59124" lon="-3.11257">
        <ele>12.8</ele>
      </trkpt>
      <trkpt lat="47.59113" lon="-3.11288">
        <ele>11.6</ele>
      </trkpt>
      <trkpt lat="47.59107" lon="-3.11304">
        <ele>11.1</ele>
      </trkpt>
      <trkpt lat="47.59089" lon="-3.11338">
        <ele>9.9</ele>
      </trkpt>
      <trkpt lat="47.59063" lon="-3.11363">
        <ele>8.5</ele>
      </trkpt>
      <trkpt lat="47.59053" lon="-3.1138">
        <ele>7.6</ele>
      </trkpt>
      <trkpt lat="47.59049" lon="-3.1141">
        <ele>6.5</ele>
      </trkpt>
      <trkpt lat="47.58993" lon="-3.11439">
        <ele>3.7</ele>
      </trkpt>
      <trkpt lat="47.58959" lon="-3.11404">
        <ele>4.3</ele>
      </trkpt>
      <trkpt lat="47.58905" lon="-3.11384">
        <ele>4.71</ele>
      </trkpt>
      <trkpt lat="47.58883" lon="-3.11373">
        <ele>4.2</ele>
      </trkpt>
      <trkpt lat="47.58881" lon="-3.11354">
        <ele>4.15</ele>
      </trkpt>
      <trkpt lat="47.5886" lon="-3.11291">
        <ele>5.8</ele>
      </trkpt>
      <trkpt lat="47.5883" lon="-3.11223">
        <ele>6.9</ele>
      </trkpt>
      <trkpt lat="47.58821" lon="-3.11181">
        <ele>6.9</ele>
      </trkpt>
      <trkpt lat="47.58833" lon="-3.11145">
        <ele>7.5</ele>
      </trkpt>
      <trkpt lat="47.58817" lon="-3.11119">
        <ele>7.4</ele>
      </trkpt>
      <trkpt lat="47.58776" lon="-3.11078">
        <ele>4.4</ele>
      </trkpt>
      <trkpt lat="47.58769" lon="-3.11037">
        <ele>5.3</ele>
      </trkpt>
      <trkpt lat="47.58782" lon="-3.10983">
        <ele>8</ele>
      </trkpt>
      <trkpt lat="47.58805" lon="-3.1092">
        <ele>9.7</ele>
      </trkpt>
      <trkpt lat="47.58814" lon="-3.10893">
        <ele>10</ele>
      </trkpt>
      <trkpt lat="47.58857" lon="-3.10884">
        <ele>11</ele>
      </trkpt>
      <trkpt lat="47.58856" lon="-3.10826">
        <ele>11.6</ele>
      </trkpt>
      <trkpt lat="47.58848" lon="-3.10791">
        <ele>11.9</ele>
      </trkpt>
      <trkpt lat="47.58919" lon="-3.10751">
        <ele>14</ele>
      </trkpt>
      <trkpt lat="47.5901" lon="-3.10752">
        <ele>14.1</ele>
      </trkpt>
      <trkpt lat="47.59059" lon="-3.10738">
        <ele>14.8</ele>
      </trkpt>
      <trkpt lat="47.5912" lon="-3.10676">
        <ele>15.3</ele>
      </trkpt>
      <trkpt lat="47.59069" lon="-3.10603">
        <ele>15.1</ele>
      </trkpt>
      <trkpt lat="47.59014" lon="-3.10497">
        <ele>16.6</ele>
      </trkpt>
      <trkpt lat="47.58988" lon="-3.10464">
        <ele>16.2</ele>
      </trkpt>
      <trkpt lat="47.58926" lon="-3.10459">
        <ele>16.5</ele>
      </trkpt>
      <trkpt lat="47.58862" lon="-3.10486">
        <ele>16</ele>
      </trkpt>
      <trkpt lat="47.58832" lon="-3.10517">
        <ele>15.7</ele>
      </trkpt>
      <trkpt lat="47.58712" lon="-3.10487">
        <ele>11.4</ele>
      </trkpt>
      <trkpt lat="47.58535" lon="-3.10486">
        <ele>6</ele>
      </trkpt>
      <trkpt lat="47.58521" lon="-3.10409">
        <ele>5.8</ele>
      </trkpt>
      <trkpt lat="47.58481" lon="-3.10336">
        <ele>2</ele>
      </trkpt>
      <trkpt lat="47.58396" lon="-3.10307">
        <ele>2.5</ele>
      </trkpt>
      <trkpt lat="47.58313" lon="-3.10296">
        <ele>2</ele>
      </trkpt>
      <trkpt lat="47.58224" lon="-3.10251">
        <ele>2.6</ele>
      </trkpt>
      <trkpt lat="47.58177" lon="-3.10273">
        <ele>3</ele>
      </trkpt>
      <trkpt lat="47.58137" lon="-3.10345">
        <ele>1.3</ele>
      </trkpt>
      <trkpt lat="47.5811" lon="-3.10345">
        <ele>1.6</ele>
      </trkpt>
      <trkpt lat="47.58104" lon="-3.103">
        <ele>2.4</ele>
      </trkpt>
      <trkpt lat="47.58076" lon="-3.10286">
        <ele>2.6</ele>
      </trkpt>
      <trkpt lat="47.58041" lon="-3.10219">
        <ele>3.4</ele>
      </trkpt>
      <trkpt lat="47.58022" lon="-3.10192">
        <ele>3</ele>
      </trkpt>
      <trkpt lat="47.58026" lon="-3.10129">
        <ele>3.4</ele>
      </trkpt>
      <trkpt lat="47.58032" lon="-3.10066">
        <ele>3.8</ele>
      </trkpt>
      <trkpt lat="47.58062" lon="-3.09972">
        <ele>5</ele>
      </trkpt>
      <trkpt lat="47.58154" lon="-3.09792">
        <ele>5.9</ele>
      </trkpt>
      <trkpt lat="47.58202" lon="-3.09639">
        <ele>4.1</ele>
      </trkpt>
      <trkpt lat="47.58283" lon="-3.09465">
        <ele>6.6</ele>
      </trkpt>
      <trkpt lat="47.58371" lon="-3.09327">
        <ele>15.1</ele>
      </trkpt>
      <trkpt lat="47.584" lon="-3.09277">
        <ele>17</ele>
      </trkpt>
      <trkpt lat="47.58405" lon="-3.09175">
        <ele>18.6</ele>
      </trkpt>
      <trkpt lat="47.58402" lon="-3.09118">
        <ele>18</ele>
      </trkpt>
      <trkpt lat="47.5849" lon="-3.09142">
        <ele>17.6</ele>
      </trkpt>
      <trkpt lat="47.58548" lon="-3.09167">
        <ele>18</ele>
      </trkpt>
      <trkpt lat="47.58601" lon="-3.09207">
        <ele>19</ele>
      </trkpt>
      <trkpt lat="47.58648" lon="-3.09168">
        <ele>18</ele>
      </trkpt>
      <trkpt lat="47.58717" lon="-3.09139">
        <ele>16.5</ele>
      </trkpt>
      <trkpt lat="47.58765" lon="-3.09043">
        <ele>15.7</ele>
      </trkpt>
      <trkpt lat="47.58845" lon="-3.08935">
        <ele>16</ele>
      </trkpt>
      <trkpt lat="47.58874" lon="-3.08916">
        <ele>16</ele>
      </trkpt>
      <trkpt lat="47.5889" lon="-3.08855">
        <ele>17</ele>
      </trkpt>
      <trkpt lat="47.58967" lon="-3.08782">
        <ele>17.6</ele>
      </trkpt>
      <trkpt lat="47.58991" lon="-3.08703">
        <ele>18</ele>
      </trkpt>
      <trkpt lat="47.58996" lon="-3.08661">
        <ele>18.1</ele>
      </trkpt>
      <trkpt lat="47.58997" lon="-3.0849">
        <ele>18.9</ele>
      </trkpt>
      <trkpt lat="47.59051" lon="-3.08487">
        <ele>18.8</ele>
      </trkpt>
      <trkpt lat="47.59094" lon="-3.0844">
        <ele>18.4</ele>
      </trkpt>
      <trkpt lat="47.59166" lon="-3.08323">
        <ele>20.1</ele>
      </trkpt>
      <trkpt lat="47.59221" lon="-3.08227">
        <ele>20.3</ele>
      </trkpt>
      <trkpt lat="47.59252" lon="-3.08121">
        <ele>19</ele>
      </trkpt>
      <trkpt lat="47.59267" lon="-3.08046">
        <ele>19</ele>
      </trkpt>
      <trkpt lat="47.59347" lon="-3.08084">
        <ele>18.2</ele>
      </trkpt>
      <trkpt lat="47.59466" lon="-3.08156">
        <ele>19</ele>
      </trkpt>
      <trkpt lat="47.59579" lon="-3.08257">
        <ele>23.9</ele>
      </trkpt>
      <trkpt lat="47.59647" lon="-3.08356">
        <ele>22.9</ele>
      </trkpt>
      <trkpt lat="47.59862" lon="-3.08482">
        <ele>18.1</ele>
      </trkpt>
      <trkpt lat="47.60026" lon="-3.08593">
        <ele>18.6</ele>
      </trkpt>
      <trkpt lat="47.60075" lon="-3.08614">
        <ele>18.4</ele>
      </trkpt>
      <trkpt lat="47.60171" lon="-3.08635">
        <ele>19.1</ele>
      </trkpt>
      <trkpt lat="47.60272" lon="-3.08729">
        <ele>20.1</ele>
      </trkpt>
      <trkpt lat="47.6052" lon="-3.0885">
        <ele>16.5</ele>
      </trkpt>
      <trkpt lat="47.60698" lon="-3.08942">
        <ele>17.6</ele>
      </trkpt>
      <trkpt lat="47.60848" lon="-3.09057">
        <ele>19.7</ele>
      </trkpt>
      <trkpt lat="47.60916" lon="-3.09073">
        <ele>19.7</ele>
      </trkpt>
      <trkpt lat="47.6093" lon="-3.09031">
        <ele>18.7</ele>
      </trkpt>
      <trkpt lat="47.60947" lon="-3.08814">
        <ele>17.9</ele>
      </trkpt>
      <trkpt lat="47.6098" lon="-3.08678">
        <ele>17.4</ele>
      </trkpt>
      <trkpt lat="47.61016" lon="-3.0855">
        <ele>15.7</ele>
      </trkpt>
      <trkpt lat="47.61027" lon="-3.08516">
        <ele>15.5</ele>
      </trkpt>
      <trkpt lat="47.61113" lon="-3.08538">
        <ele>16.2</ele>
      </trkpt>
      <trkpt lat="47.61258" lon="-3.08534">
        <ele>15.5</ele>
      </trkpt>
      <trkpt lat="47.61459" lon="-3.08524">
        <ele>17.2</ele>
      </trkpt>
      <trkpt lat="47.61516" lon="-3.08532">
        <ele>19.1</ele>
      </trkpt>
      <trkpt lat="47.61539" lon="-3.08542">
        <ele>20.4</ele>
      </trkpt>
      <trkpt lat="47.61614" lon="-3.08542">
        <ele>20.7</ele>
      </trkpt>
      <trkpt lat="47.6178" lon="-3.08476">
        <ele>16.9</ele>
      </trkpt>
      <trkpt lat="47.61895" lon="-3.08472">
        <ele>16.2</ele>
      </trkpt>
      <trkpt lat="47.61985" lon="-3.08444">
        <ele>16.1</ele>
      </trkpt>
      <trkpt lat="47.6217" lon="-3.08506">
        <ele>15.8</ele>
      </trkpt>
      <trkpt lat="47.62363" lon="-3.0858">
        <ele>18.8</ele>
      </trkpt>
      <trkpt lat="47.62614" lon="-3.08662">
        <ele>16.4</ele>
      </trkpt>
      <trkpt lat="47.62733" lon="-3.08708">
        <ele>14.5</ele>
      </trkpt>
      <trkpt lat="47.62788" lon="-3.08666">
        <ele>14.5</ele>
      </trkpt>
      <trkpt lat="47.6286" lon="-3.08668">
        <ele>14.6</ele>
      </trkpt>
      <trkpt lat="47.62891" lon="-3.08672">
        <ele>15.4</ele>
      </trkpt>
      <trkpt lat="47.62918" lon="-3.08656">
        <ele>16.4</ele>
      </trkpt>
      <trkpt lat="47.62934" lon="-3.08668">
        <ele>16.4</ele>
      </trkpt>
      <trkpt lat="47.62945" lon="-3.08774">
        <ele>17.7</ele>
      </trkpt>
      <trkpt lat="47.62978" lon="-3.08804">
        <ele>19.3</ele>
      </trkpt>
      <trkpt lat="47.63067" lon="-3.0877">
        <ele>20.8</ele>
      </trkpt>
      <trkpt lat="47.63177" lon="-3.0874">
        <ele>19.9</ele>
      </trkpt>
      <trkpt lat="47.63273" lon="-3.0873">
        <ele>18.3</ele>
      </trkpt>
      <trkpt lat="47.63358" lon="-3.08734">
        <ele>19.8</ele>
      </trkpt>
      <trkpt lat="47.63401" lon="-3.08766">
        <ele>20.6</ele>
      </trkpt>
      <trkpt lat="47.63411" lon="-3.08836">
        <ele>20.8</ele>
      </trkpt>
      <trkpt lat="47.63398" lon="-3.08989">
        <ele>19.8</ele>
      </trkpt>
      <trkpt lat="47.63367" lon="-3.09133">
        <ele>18.5</ele>
      </trkpt>
      <trkpt lat="47.63348" lon="-3.09237">
        <ele>18.1</ele>
      </trkpt>
      <trkpt lat="47.63337" lon="-3.09371">
        <ele>17</ele>
      </trkpt>
      <trkpt lat="47.63329" lon="-3.09508">
        <ele>18.9</ele>
        <time>2021-06-18T09:03:10+02:00</time>
      </trkpt>
    </trkseg>
  </trk>
</gpx>